<?xml version="1.0" encoding="UTF-8" standalone="no" ?>
<gpx xmlns="http://www.topografix.com/GPX/1/1" xmlns:xsi="http://www.w3.org/2001/XMLSchema-instance" xsi:schemaLocation="http://www.topografix.com/GPX/1/1 http://www.topografix.com/GPX/1/1/gpx.xsd" version="1.1" creator="VisuGPX - https://www.visugpx.com">
  <metadata>
    <name>121222ROBTheatrePourraquesBesse</name>
    <desc><![CDATA[459 m 25 km]]></desc>
  </metadata>
  <trk>
    <name><![CDATA[121222ROBTheatrePourraquesBesse]]></name>
    <cmt><![CDATA[HR decrease: 117/72/45]]></cmt>
    <trkseg>
      <trkpt lat="43.40255" lon="6.06558">
        <ele>182</ele>
        <time>2012-12-22T13:11:19Z</time>
      </trkpt>
      <trkpt lat="43.40237" lon="6.06582">
        <ele>183</ele>
        <time>2012-12-22T13:11:39Z</time>
      </trkpt>
      <trkpt lat="43.40229" lon="6.06608">
        <ele>182</ele>
        <time>2012-12-22T13:11:44Z</time>
      </trkpt>
      <trkpt lat="43.40213" lon="6.0663">
        <ele>181</ele>
        <time>2012-12-22T13:11:49Z</time>
      </trkpt>
      <trkpt lat="43.40185" lon="6.06694">
        <ele>181</ele>
        <time>2012-12-22T13:12:04Z</time>
      </trkpt>
      <trkpt lat="43.40177" lon="6.06711">
        <ele>182</ele>
        <time>2012-12-22T13:12:09Z</time>
      </trkpt>
      <trkpt lat="43.40113" lon="6.06877">
        <ele>188</ele>
        <time>2012-12-22T13:12:54Z</time>
      </trkpt>
      <trkpt lat="43.40108" lon="6.06899">
        <ele>189</ele>
        <time>2012-12-22T13:12:59Z</time>
      </trkpt>
      <trkpt lat="43.40109" lon="6.06929">
        <ele>188</ele>
        <time>2012-12-22T13:13:05Z</time>
      </trkpt>
      <trkpt lat="43.40118" lon="6.06999">
        <ele>187</ele>
        <time>2012-12-22T13:13:15Z</time>
      </trkpt>
      <trkpt lat="43.4012" lon="6.07113">
        <ele>186</ele>
        <time>2012-12-22T13:13:30Z</time>
      </trkpt>
      <trkpt lat="43.40132" lon="6.07186">
        <ele>186</ele>
        <time>2012-12-22T13:13:40Z</time>
      </trkpt>
      <trkpt lat="43.40139" lon="6.07225">
        <ele>186</ele>
        <time>2012-12-22T13:13:45Z</time>
      </trkpt>
      <trkpt lat="43.40142" lon="6.07259">
        <ele>186</ele>
        <time>2012-12-22T13:13:50Z</time>
      </trkpt>
      <trkpt lat="43.40143" lon="6.07293">
        <ele>186</ele>
        <time>2012-12-22T13:13:55Z</time>
      </trkpt>
      <trkpt lat="43.40137" lon="6.07387">
        <ele>187</ele>
        <time>2012-12-22T13:14:11Z</time>
      </trkpt>
      <trkpt lat="43.40143" lon="6.07448">
        <ele>188</ele>
        <time>2012-12-22T13:14:21Z</time>
      </trkpt>
      <trkpt lat="43.40141" lon="6.07477">
        <ele>189</ele>
        <time>2012-12-22T13:14:26Z</time>
      </trkpt>
      <trkpt lat="43.40131" lon="6.07524">
        <ele>191</ele>
        <time>2012-12-22T13:14:36Z</time>
      </trkpt>
      <trkpt lat="43.40098" lon="6.07585">
        <ele>193</ele>
        <time>2012-12-22T13:14:51Z</time>
      </trkpt>
      <trkpt lat="43.40092" lon="6.07608">
        <ele>193</ele>
        <time>2012-12-22T13:14:56Z</time>
      </trkpt>
      <trkpt lat="43.40084" lon="6.07666">
        <ele>197</ele>
        <time>2012-12-22T13:15:11Z</time>
      </trkpt>
      <trkpt lat="43.40069" lon="6.07696">
        <ele>199</ele>
        <time>2012-12-22T13:15:22Z</time>
      </trkpt>
      <trkpt lat="43.40059" lon="6.07711">
        <ele>200</ele>
        <time>2012-12-22T13:15:27Z</time>
      </trkpt>
      <trkpt lat="43.40036" lon="6.07745">
        <ele>200</ele>
        <time>2012-12-22T13:15:37Z</time>
      </trkpt>
      <trkpt lat="43.40028" lon="6.07766">
        <ele>200</ele>
        <time>2012-12-22T13:15:42Z</time>
      </trkpt>
      <trkpt lat="43.3999" lon="6.07904">
        <ele>202</ele>
        <time>2012-12-22T13:16:12Z</time>
      </trkpt>
      <trkpt lat="43.39977" lon="6.07964">
        <ele>205</ele>
        <time>2012-12-22T13:16:27Z</time>
      </trkpt>
      <trkpt lat="43.39969" lon="6.07975">
        <ele>206</ele>
        <time>2012-12-22T13:16:32Z</time>
      </trkpt>
      <trkpt lat="43.39949" lon="6.07988">
        <ele>208</ele>
        <time>2012-12-22T13:16:43Z</time>
      </trkpt>
      <trkpt lat="43.39935" lon="6.07995">
        <ele>208</ele>
        <time>2012-12-22T13:16:48Z</time>
      </trkpt>
      <trkpt lat="43.39921" lon="6.08006">
        <ele>208</ele>
        <time>2012-12-22T13:16:53Z</time>
      </trkpt>
      <trkpt lat="43.39908" lon="6.08023">
        <ele>208</ele>
        <time>2012-12-22T13:16:58Z</time>
      </trkpt>
      <trkpt lat="43.39891" lon="6.08034">
        <ele>207</ele>
        <time>2012-12-22T13:17:03Z</time>
      </trkpt>
      <trkpt lat="43.39871" lon="6.08029">
        <ele>207</ele>
        <time>2012-12-22T13:17:08Z</time>
      </trkpt>
      <trkpt lat="43.39837" lon="6.08008">
        <ele>206</ele>
        <time>2012-12-22T13:17:18Z</time>
      </trkpt>
      <trkpt lat="43.39819" lon="6.07998">
        <ele>206</ele>
        <time>2012-12-22T13:17:23Z</time>
      </trkpt>
      <trkpt lat="43.39789" lon="6.07985">
        <ele>207</ele>
        <time>2012-12-22T13:17:33Z</time>
      </trkpt>
      <trkpt lat="43.39747" lon="6.07962">
        <ele>210</ele>
        <time>2012-12-22T13:17:53Z</time>
      </trkpt>
      <trkpt lat="43.39736" lon="6.07953">
        <ele>210</ele>
        <time>2012-12-22T13:17:58Z</time>
      </trkpt>
      <trkpt lat="43.39718" lon="6.0793">
        <ele>212</ele>
        <time>2012-12-22T13:18:08Z</time>
      </trkpt>
      <trkpt lat="43.39696" lon="6.07904">
        <ele>215</ele>
        <time>2012-12-22T13:18:24Z</time>
      </trkpt>
      <trkpt lat="43.3968" lon="6.07893">
        <ele>217</ele>
        <time>2012-12-22T13:18:34Z</time>
      </trkpt>
      <trkpt lat="43.39671" lon="6.07891">
        <ele>217</ele>
        <time>2012-12-22T13:18:39Z</time>
      </trkpt>
      <trkpt lat="43.39653" lon="6.07893">
        <ele>218</ele>
        <time>2012-12-22T13:18:49Z</time>
      </trkpt>
      <trkpt lat="43.39626" lon="6.079">
        <ele>219</ele>
        <time>2012-12-22T13:19:04Z</time>
      </trkpt>
      <trkpt lat="43.39617" lon="6.07904">
        <ele>219</ele>
        <time>2012-12-22T13:19:09Z</time>
      </trkpt>
      <trkpt lat="43.39609" lon="6.07908">
        <ele>220</ele>
        <time>2012-12-22T13:19:14Z</time>
      </trkpt>
      <trkpt lat="43.39587" lon="6.07912">
        <ele>224</ele>
        <time>2012-12-22T13:19:29Z</time>
      </trkpt>
      <trkpt lat="43.39575" lon="6.07934">
        <ele>224</ele>
        <time>2012-12-22T13:19:50Z</time>
      </trkpt>
      <trkpt lat="43.39534" lon="6.07951">
        <ele>230</ele>
        <time>2012-12-22T13:20:25Z</time>
      </trkpt>
      <trkpt lat="43.39528" lon="6.07953">
        <ele>231</ele>
        <time>2012-12-22T13:20:30Z</time>
      </trkpt>
      <trkpt lat="43.39499" lon="6.07961">
        <ele>233</ele>
        <time>2012-12-22T13:20:50Z</time>
      </trkpt>
      <trkpt lat="43.39481" lon="6.07949">
        <ele>234</ele>
        <time>2012-12-22T13:21:01Z</time>
      </trkpt>
      <trkpt lat="43.39467" lon="6.07905">
        <ele>236</ele>
        <time>2012-12-22T13:21:21Z</time>
      </trkpt>
      <trkpt lat="43.39464" lon="6.07897">
        <ele>237</ele>
        <time>2012-12-22T13:21:26Z</time>
      </trkpt>
      <trkpt lat="43.39448" lon="6.07897">
        <ele>239</ele>
        <time>2012-12-22T13:21:36Z</time>
      </trkpt>
      <trkpt lat="43.39444" lon="6.079">
        <ele>241</ele>
        <time>2012-12-22T13:21:41Z</time>
      </trkpt>
      <trkpt lat="43.39444" lon="6.079">
        <ele>242</ele>
        <time>2012-12-22T13:22:02Z</time>
      </trkpt>
      <trkpt lat="43.3944" lon="6.079">
        <ele>242</ele>
        <time>2012-12-22T13:22:42Z</time>
      </trkpt>
      <trkpt lat="43.39445" lon="6.07903">
        <ele>242</ele>
        <time>2012-12-22T13:23:28Z</time>
      </trkpt>
      <trkpt lat="43.39444" lon="6.07917">
        <ele>242</ele>
        <time>2012-12-22T13:23:38Z</time>
      </trkpt>
      <trkpt lat="43.39431" lon="6.07952">
        <ele>241</ele>
        <time>2012-12-22T13:23:48Z</time>
      </trkpt>
      <trkpt lat="43.39419" lon="6.07965">
        <ele>241</ele>
        <time>2012-12-22T13:23:53Z</time>
      </trkpt>
      <trkpt lat="43.39407" lon="6.07968">
        <ele>241</ele>
        <time>2012-12-22T13:23:58Z</time>
      </trkpt>
      <trkpt lat="43.39397" lon="6.07967">
        <ele>243</ele>
        <time>2012-12-22T13:24:08Z</time>
      </trkpt>
      <trkpt lat="43.39389" lon="6.0797">
        <ele>244</ele>
        <time>2012-12-22T13:24:29Z</time>
      </trkpt>
      <trkpt lat="43.39378" lon="6.07976">
        <ele>244</ele>
        <time>2012-12-22T13:24:39Z</time>
      </trkpt>
      <trkpt lat="43.39359" lon="6.08022">
        <ele>243</ele>
        <time>2012-12-22T13:24:54Z</time>
      </trkpt>
      <trkpt lat="43.39352" lon="6.08034">
        <ele>243</ele>
        <time>2012-12-22T13:24:59Z</time>
      </trkpt>
      <trkpt lat="43.39337" lon="6.08051">
        <ele>245</ele>
        <time>2012-12-22T13:25:09Z</time>
      </trkpt>
      <trkpt lat="43.39298" lon="6.08113">
        <ele>248</ele>
        <time>2012-12-22T13:25:39Z</time>
      </trkpt>
      <trkpt lat="43.39286" lon="6.08149">
        <ele>250</ele>
        <time>2012-12-22T13:26:55Z</time>
      </trkpt>
      <trkpt lat="43.39277" lon="6.08187">
        <ele>252</ele>
        <time>2012-12-22T13:27:21Z</time>
      </trkpt>
      <trkpt lat="43.39273" lon="6.08192">
        <ele>253</ele>
        <time>2012-12-22T13:27:26Z</time>
      </trkpt>
      <trkpt lat="43.39273" lon="6.08198">
        <ele>255</ele>
        <time>2012-12-22T13:27:36Z</time>
      </trkpt>
      <trkpt lat="43.39277" lon="6.08199">
        <ele>255</ele>
        <time>2012-12-22T13:27:46Z</time>
      </trkpt>
      <trkpt lat="43.3928" lon="6.08199">
        <ele>255</ele>
        <time>2012-12-22T13:28:01Z</time>
      </trkpt>
      <trkpt lat="43.39285" lon="6.08195">
        <ele>256</ele>
        <time>2012-12-22T13:28:47Z</time>
      </trkpt>
      <trkpt lat="43.39281" lon="6.08196">
        <ele>255</ele>
        <time>2012-12-22T13:29:38Z</time>
      </trkpt>
      <trkpt lat="43.39271" lon="6.08236">
        <ele>257</ele>
        <time>2012-12-22T13:29:58Z</time>
      </trkpt>
      <trkpt lat="43.39266" lon="6.08255">
        <ele>259</ele>
        <time>2012-12-22T13:30:08Z</time>
      </trkpt>
      <trkpt lat="43.39246" lon="6.08279">
        <ele>261</ele>
        <time>2012-12-22T13:30:23Z</time>
      </trkpt>
      <trkpt lat="43.39235" lon="6.08305">
        <ele>263</ele>
        <time>2012-12-22T13:30:39Z</time>
      </trkpt>
      <trkpt lat="43.39231" lon="6.08312">
        <ele>265</ele>
        <time>2012-12-22T13:30:59Z</time>
      </trkpt>
      <trkpt lat="43.3923" lon="6.08319">
        <ele>265</ele>
        <time>2012-12-22T13:31:29Z</time>
      </trkpt>
      <trkpt lat="43.39229" lon="6.08315">
        <ele>265</ele>
        <time>2012-12-22T13:32:10Z</time>
      </trkpt>
      <trkpt lat="43.39229" lon="6.08313">
        <ele>265</ele>
        <time>2012-12-22T13:32:40Z</time>
      </trkpt>
      <trkpt lat="43.39229" lon="6.08314">
        <ele>266</ele>
        <time>2012-12-22T13:33:01Z</time>
      </trkpt>
      <trkpt lat="43.39228" lon="6.08322">
        <ele>266</ele>
        <time>2012-12-22T13:33:06Z</time>
      </trkpt>
      <trkpt lat="43.39222" lon="6.08328">
        <ele>266</ele>
        <time>2012-12-22T13:33:11Z</time>
      </trkpt>
      <trkpt lat="43.39219" lon="6.08352">
        <ele>269</ele>
        <time>2012-12-22T13:33:26Z</time>
      </trkpt>
      <trkpt lat="43.39219" lon="6.08355">
        <ele>270</ele>
        <time>2012-12-22T13:34:12Z</time>
      </trkpt>
      <trkpt lat="43.3921" lon="6.08411">
        <ele>273</ele>
        <time>2012-12-22T13:35:34Z</time>
      </trkpt>
      <trkpt lat="43.39209" lon="6.08417">
        <ele>274</ele>
        <time>2012-12-22T13:35:54Z</time>
      </trkpt>
      <trkpt lat="43.39205" lon="6.08432">
        <ele>275</ele>
        <time>2012-12-22T13:36:04Z</time>
      </trkpt>
      <trkpt lat="43.39206" lon="6.08441">
        <ele>277</ele>
        <time>2012-12-22T13:36:24Z</time>
      </trkpt>
      <trkpt lat="43.39206" lon="6.08442">
        <ele>278</ele>
        <time>2012-12-22T13:36:45Z</time>
      </trkpt>
      <trkpt lat="43.39206" lon="6.08444">
        <ele>277</ele>
        <time>2012-12-22T13:37:10Z</time>
      </trkpt>
      <trkpt lat="43.39199" lon="6.08496">
        <ele>280</ele>
        <time>2012-12-22T13:37:35Z</time>
      </trkpt>
      <trkpt lat="43.39192" lon="6.08509">
        <ele>280</ele>
        <time>2012-12-22T13:37:46Z</time>
      </trkpt>
      <trkpt lat="43.39174" lon="6.08566">
        <ele>279</ele>
        <time>2012-12-22T13:38:06Z</time>
      </trkpt>
      <trkpt lat="43.39164" lon="6.08617">
        <ele>277</ele>
        <time>2012-12-22T13:38:21Z</time>
      </trkpt>
      <trkpt lat="43.39159" lon="6.08632">
        <ele>277</ele>
        <time>2012-12-22T13:38:26Z</time>
      </trkpt>
      <trkpt lat="43.39153" lon="6.08665">
        <ele>277</ele>
        <time>2012-12-22T13:38:36Z</time>
      </trkpt>
      <trkpt lat="43.39143" lon="6.08729">
        <ele>278</ele>
        <time>2012-12-22T13:38:57Z</time>
      </trkpt>
      <trkpt lat="43.39119" lon="6.08829">
        <ele>279</ele>
        <time>2012-12-22T13:39:27Z</time>
      </trkpt>
      <trkpt lat="43.39096" lon="6.08942">
        <ele>281</ele>
        <time>2012-12-22T13:39:58Z</time>
      </trkpt>
      <trkpt lat="43.39079" lon="6.08993">
        <ele>282</ele>
        <time>2012-12-22T13:40:13Z</time>
      </trkpt>
      <trkpt lat="43.39048" lon="6.09059">
        <ele>284</ele>
        <time>2012-12-22T13:40:33Z</time>
      </trkpt>
      <trkpt lat="43.3903" lon="6.09105">
        <ele>284</ele>
        <time>2012-12-22T13:40:49Z</time>
      </trkpt>
      <trkpt lat="43.39018" lon="6.09159">
        <ele>285</ele>
        <time>2012-12-22T13:41:04Z</time>
      </trkpt>
      <trkpt lat="43.39004" lon="6.09216">
        <ele>287</ele>
        <time>2012-12-22T13:41:34Z</time>
      </trkpt>
      <trkpt lat="43.39" lon="6.09237">
        <ele>286</ele>
        <time>2012-12-22T13:41:49Z</time>
      </trkpt>
      <trkpt lat="43.3899" lon="6.09268">
        <ele>287</ele>
        <time>2012-12-22T13:41:59Z</time>
      </trkpt>
      <trkpt lat="43.38983" lon="6.09283">
        <ele>287</ele>
        <time>2012-12-22T13:42:05Z</time>
      </trkpt>
      <trkpt lat="43.38955" lon="6.09331">
        <ele>290</ele>
        <time>2012-12-22T13:42:25Z</time>
      </trkpt>
      <trkpt lat="43.38924" lon="6.09365">
        <ele>291</ele>
        <time>2012-12-22T13:42:40Z</time>
      </trkpt>
      <trkpt lat="43.38909" lon="6.09383">
        <ele>292</ele>
        <time>2012-12-22T13:42:50Z</time>
      </trkpt>
      <trkpt lat="43.38903" lon="6.09392">
        <ele>293</ele>
        <time>2012-12-22T13:42:55Z</time>
      </trkpt>
      <trkpt lat="43.38894" lon="6.09416">
        <ele>296</ele>
        <time>2012-12-22T13:43:11Z</time>
      </trkpt>
      <trkpt lat="43.38887" lon="6.09418">
        <ele>297</ele>
        <time>2012-12-22T13:43:26Z</time>
      </trkpt>
      <trkpt lat="43.38883" lon="6.09429">
        <ele>299</ele>
        <time>2012-12-22T13:44:01Z</time>
      </trkpt>
      <trkpt lat="43.3888" lon="6.09439">
        <ele>299</ele>
        <time>2012-12-22T13:45:38Z</time>
      </trkpt>
      <trkpt lat="43.38878" lon="6.09438">
        <ele>299</ele>
        <time>2012-12-22T13:46:03Z</time>
      </trkpt>
      <trkpt lat="43.38877" lon="6.09438">
        <ele>299</ele>
        <time>2012-12-22T13:46:18Z</time>
      </trkpt>
      <trkpt lat="43.3887" lon="6.09439">
        <ele>298</ele>
        <time>2012-12-22T13:46:23Z</time>
      </trkpt>
      <trkpt lat="43.38844" lon="6.09394">
        <ele>293</ele>
        <time>2012-12-22T13:46:44Z</time>
      </trkpt>
      <trkpt lat="43.38842" lon="6.09392">
        <ele>291</ele>
        <time>2012-12-22T13:46:54Z</time>
      </trkpt>
      <trkpt lat="43.38841" lon="6.09397">
        <ele>291</ele>
        <time>2012-12-22T13:47:24Z</time>
      </trkpt>
      <trkpt lat="43.38834" lon="6.09422">
        <ele>287</ele>
        <time>2012-12-22T13:47:34Z</time>
      </trkpt>
      <trkpt lat="43.38829" lon="6.09427">
        <ele>286</ele>
        <time>2012-12-22T13:47:39Z</time>
      </trkpt>
      <trkpt lat="43.38829" lon="6.09428">
        <ele>285</ele>
        <time>2012-12-22T13:47:44Z</time>
      </trkpt>
      <trkpt lat="43.38829" lon="6.09427">
        <ele>286</ele>
        <time>2012-12-22T13:47:54Z</time>
      </trkpt>
      <trkpt lat="43.38829" lon="6.09425">
        <ele>286</ele>
        <time>2012-12-22T13:48:00Z</time>
      </trkpt>
      <trkpt lat="43.38824" lon="6.09415">
        <ele>284</ele>
        <time>2012-12-22T13:48:05Z</time>
      </trkpt>
      <trkpt lat="43.38819" lon="6.09408">
        <ele>283</ele>
        <time>2012-12-22T13:48:10Z</time>
      </trkpt>
      <trkpt lat="43.38808" lon="6.09386">
        <ele>281</ele>
        <time>2012-12-22T13:48:15Z</time>
      </trkpt>
      <trkpt lat="43.38783" lon="6.09359">
        <ele>277</ele>
        <time>2012-12-22T13:48:20Z</time>
      </trkpt>
      <trkpt lat="43.38752" lon="6.0934">
        <ele>270</ele>
        <time>2012-12-22T13:48:25Z</time>
      </trkpt>
      <trkpt lat="43.38717" lon="6.09325">
        <ele>264</ele>
        <time>2012-12-22T13:48:30Z</time>
      </trkpt>
      <trkpt lat="43.38686" lon="6.09301">
        <ele>256</ele>
        <time>2012-12-22T13:48:35Z</time>
      </trkpt>
      <trkpt lat="43.38675" lon="6.09307">
        <ele>251</ele>
        <time>2012-12-22T13:48:40Z</time>
      </trkpt>
      <trkpt lat="43.38672" lon="6.09309">
        <ele>249</ele>
        <time>2012-12-22T13:48:45Z</time>
      </trkpt>
      <trkpt lat="43.3867" lon="6.09318">
        <ele>249</ele>
        <time>2012-12-22T13:48:50Z</time>
      </trkpt>
      <trkpt lat="43.3867" lon="6.09328">
        <ele>248</ele>
        <time>2012-12-22T13:48:55Z</time>
      </trkpt>
      <trkpt lat="43.38675" lon="6.09363">
        <ele>249</ele>
        <time>2012-12-22T13:49:06Z</time>
      </trkpt>
      <trkpt lat="43.38674" lon="6.09418">
        <ele>246</ele>
        <time>2012-12-22T13:49:16Z</time>
      </trkpt>
      <trkpt lat="43.38676" lon="6.09442">
        <ele>247</ele>
        <time>2012-12-22T13:49:21Z</time>
      </trkpt>
      <trkpt lat="43.38676" lon="6.09467">
        <ele>247</ele>
        <time>2012-12-22T13:49:26Z</time>
      </trkpt>
      <trkpt lat="43.38668" lon="6.09519">
        <ele>246</ele>
        <time>2012-12-22T13:49:36Z</time>
      </trkpt>
      <trkpt lat="43.38667" lon="6.09589">
        <ele>246</ele>
        <time>2012-12-22T13:49:51Z</time>
      </trkpt>
      <trkpt lat="43.38667" lon="6.09597">
        <ele>246</ele>
        <time>2012-12-22T13:49:56Z</time>
      </trkpt>
      <trkpt lat="43.38674" lon="6.09597">
        <ele>245</ele>
        <time>2012-12-22T13:50:17Z</time>
      </trkpt>
      <trkpt lat="43.38676" lon="6.09597">
        <ele>245</ele>
        <time>2012-12-22T13:50:22Z</time>
      </trkpt>
      <trkpt lat="43.38678" lon="6.09574">
        <ele>246</ele>
        <time>2012-12-22T13:50:32Z</time>
      </trkpt>
      <trkpt lat="43.38675" lon="6.09516">
        <ele>246</ele>
        <time>2012-12-22T13:50:47Z</time>
      </trkpt>
      <trkpt lat="43.38683" lon="6.09465">
        <ele>246</ele>
        <time>2012-12-22T13:50:57Z</time>
      </trkpt>
      <trkpt lat="43.38678" lon="6.0939">
        <ele>247</ele>
        <time>2012-12-22T13:51:17Z</time>
      </trkpt>
      <trkpt lat="43.38678" lon="6.09388">
        <ele>247</ele>
        <time>2012-12-22T13:51:27Z</time>
      </trkpt>
      <trkpt lat="43.3868" lon="6.09459">
        <ele>246</ele>
        <time>2012-12-22T13:51:48Z</time>
      </trkpt>
      <trkpt lat="43.38672" lon="6.09514">
        <ele>246</ele>
        <time>2012-12-22T13:51:58Z</time>
      </trkpt>
      <trkpt lat="43.38669" lon="6.09595">
        <ele>246</ele>
        <time>2012-12-22T13:52:13Z</time>
      </trkpt>
      <trkpt lat="43.38665" lon="6.09619">
        <ele>246</ele>
        <time>2012-12-22T13:52:18Z</time>
      </trkpt>
      <trkpt lat="43.3866" lon="6.09642">
        <ele>245</ele>
        <time>2012-12-22T13:52:23Z</time>
      </trkpt>
      <trkpt lat="43.38632" lon="6.09699">
        <ele>242</ele>
        <time>2012-12-22T13:52:34Z</time>
      </trkpt>
      <trkpt lat="43.38618" lon="6.09725">
        <ele>241</ele>
        <time>2012-12-22T13:52:44Z</time>
      </trkpt>
      <trkpt lat="43.38617" lon="6.09728">
        <ele>240</ele>
        <time>2012-12-22T13:52:49Z</time>
      </trkpt>
      <trkpt lat="43.38594" lon="6.09788">
        <ele>240</ele>
        <time>2012-12-22T13:53:04Z</time>
      </trkpt>
      <trkpt lat="43.38591" lon="6.09832">
        <ele>241</ele>
        <time>2012-12-22T13:53:14Z</time>
      </trkpt>
      <trkpt lat="43.38594" lon="6.09894">
        <ele>245</ele>
        <time>2012-12-22T13:53:35Z</time>
      </trkpt>
      <trkpt lat="43.38599" lon="6.09921">
        <ele>246</ele>
        <time>2012-12-22T13:53:45Z</time>
      </trkpt>
      <trkpt lat="43.38612" lon="6.09942">
        <ele>248</ele>
        <time>2012-12-22T13:53:55Z</time>
      </trkpt>
      <trkpt lat="43.38638" lon="6.09971">
        <ele>250</ele>
        <time>2012-12-22T13:54:10Z</time>
      </trkpt>
      <trkpt lat="43.38694" lon="6.10014">
        <ele>252</ele>
        <time>2012-12-22T13:54:41Z</time>
      </trkpt>
      <trkpt lat="43.38718" lon="6.10065">
        <ele>253</ele>
        <time>2012-12-22T13:55:01Z</time>
      </trkpt>
      <trkpt lat="43.3874" lon="6.10105">
        <ele>254</ele>
        <time>2012-12-22T13:55:16Z</time>
      </trkpt>
      <trkpt lat="43.38747" lon="6.10116">
        <ele>255</ele>
        <time>2012-12-22T13:55:21Z</time>
      </trkpt>
      <trkpt lat="43.38792" lon="6.10167">
        <ele>259</ele>
        <time>2012-12-22T13:55:57Z</time>
      </trkpt>
      <trkpt lat="43.38797" lon="6.10172">
        <ele>259</ele>
        <time>2012-12-22T13:56:02Z</time>
      </trkpt>
      <trkpt lat="43.3881" lon="6.10168">
        <ele>259</ele>
        <time>2012-12-22T13:56:07Z</time>
      </trkpt>
      <trkpt lat="43.38824" lon="6.1017">
        <ele>260</ele>
        <time>2012-12-22T13:56:12Z</time>
      </trkpt>
      <trkpt lat="43.38818" lon="6.10214">
        <ele>262</ele>
        <time>2012-12-22T13:56:28Z</time>
      </trkpt>
      <trkpt lat="43.3882" lon="6.10226">
        <ele>263</ele>
        <time>2012-12-22T13:56:33Z</time>
      </trkpt>
      <trkpt lat="43.38831" lon="6.10299">
        <ele>259</ele>
        <time>2012-12-22T13:56:53Z</time>
      </trkpt>
      <trkpt lat="43.38831" lon="6.10389">
        <ele>257</ele>
        <time>2012-12-22T13:57:13Z</time>
      </trkpt>
      <trkpt lat="43.38829" lon="6.10412">
        <ele>256</ele>
        <time>2012-12-22T13:57:19Z</time>
      </trkpt>
      <trkpt lat="43.38821" lon="6.10487">
        <ele>253</ele>
        <time>2012-12-22T13:57:34Z</time>
      </trkpt>
      <trkpt lat="43.38792" lon="6.10645">
        <ele>247</ele>
        <time>2012-12-22T13:58:14Z</time>
      </trkpt>
      <trkpt lat="43.38779" lon="6.10698">
        <ele>246</ele>
        <time>2012-12-22T13:58:29Z</time>
      </trkpt>
      <trkpt lat="43.38772" lon="6.10744">
        <ele>244</ele>
        <time>2012-12-22T13:58:45Z</time>
      </trkpt>
      <trkpt lat="43.38774" lon="6.10751">
        <ele>244</ele>
        <time>2012-12-22T13:58:50Z</time>
      </trkpt>
      <trkpt lat="43.38787" lon="6.10759">
        <ele>243</ele>
        <time>2012-12-22T13:58:55Z</time>
      </trkpt>
      <trkpt lat="43.3886" lon="6.10753">
        <ele>241</ele>
        <time>2012-12-22T13:59:15Z</time>
      </trkpt>
      <trkpt lat="43.38901" lon="6.10761">
        <ele>239</ele>
        <time>2012-12-22T13:59:25Z</time>
      </trkpt>
      <trkpt lat="43.38916" lon="6.10778">
        <ele>239</ele>
        <time>2012-12-22T13:59:30Z</time>
      </trkpt>
      <trkpt lat="43.38924" lon="6.10802">
        <ele>239</ele>
        <time>2012-12-22T13:59:36Z</time>
      </trkpt>
      <trkpt lat="43.38934" lon="6.1082">
        <ele>238</ele>
        <time>2012-12-22T13:59:41Z</time>
      </trkpt>
      <trkpt lat="43.38985" lon="6.10845">
        <ele>238</ele>
        <time>2012-12-22T13:59:56Z</time>
      </trkpt>
      <trkpt lat="43.39001" lon="6.10844">
        <ele>238</ele>
        <time>2012-12-22T14:00:01Z</time>
      </trkpt>
      <trkpt lat="43.39059" lon="6.1082">
        <ele>236</ele>
        <time>2012-12-22T14:00:16Z</time>
      </trkpt>
      <trkpt lat="43.39073" lon="6.10813">
        <ele>236</ele>
        <time>2012-12-22T14:00:22Z</time>
      </trkpt>
      <trkpt lat="43.39102" lon="6.10784">
        <ele>236</ele>
        <time>2012-12-22T14:00:32Z</time>
      </trkpt>
      <trkpt lat="43.39147" lon="6.10754">
        <ele>234</ele>
        <time>2012-12-22T14:00:42Z</time>
      </trkpt>
      <trkpt lat="43.39166" lon="6.1073">
        <ele>233</ele>
        <time>2012-12-22T14:00:47Z</time>
      </trkpt>
      <trkpt lat="43.39177" lon="6.10701">
        <ele>232</ele>
        <time>2012-12-22T14:00:52Z</time>
      </trkpt>
      <trkpt lat="43.39188" lon="6.10699">
        <ele>232</ele>
        <time>2012-12-22T14:00:57Z</time>
      </trkpt>
      <trkpt lat="43.39195" lon="6.10704">
        <ele>232</ele>
        <time>2012-12-22T14:01:02Z</time>
      </trkpt>
      <trkpt lat="43.39216" lon="6.10738">
        <ele>234</ele>
        <time>2012-12-22T14:01:18Z</time>
      </trkpt>
      <trkpt lat="43.39218" lon="6.10786">
        <ele>234</ele>
        <time>2012-12-22T14:01:33Z</time>
      </trkpt>
      <trkpt lat="43.39226" lon="6.1085">
        <ele>236</ele>
        <time>2012-12-22T14:01:53Z</time>
      </trkpt>
      <trkpt lat="43.39227" lon="6.10876">
        <ele>236</ele>
        <time>2012-12-22T14:02:04Z</time>
      </trkpt>
      <trkpt lat="43.39225" lon="6.10886">
        <ele>236</ele>
        <time>2012-12-22T14:02:29Z</time>
      </trkpt>
      <trkpt lat="43.39201" lon="6.10922">
        <ele>236</ele>
        <time>2012-12-22T14:03:05Z</time>
      </trkpt>
      <trkpt lat="43.39192" lon="6.10924">
        <ele>236</ele>
        <time>2012-12-22T14:03:10Z</time>
      </trkpt>
      <trkpt lat="43.39185" lon="6.10932">
        <ele>237</ele>
        <time>2012-12-22T14:03:15Z</time>
      </trkpt>
      <trkpt lat="43.39173" lon="6.10956">
        <ele>236</ele>
        <time>2012-12-22T14:03:25Z</time>
      </trkpt>
      <trkpt lat="43.39152" lon="6.10983">
        <ele>239</ele>
        <time>2012-12-22T14:03:40Z</time>
      </trkpt>
      <trkpt lat="43.39151" lon="6.10998">
        <ele>239</ele>
        <time>2012-12-22T14:03:45Z</time>
      </trkpt>
      <trkpt lat="43.39153" lon="6.11017">
        <ele>239</ele>
        <time>2012-12-22T14:03:50Z</time>
      </trkpt>
      <trkpt lat="43.39145" lon="6.11059">
        <ele>239</ele>
        <time>2012-12-22T14:04:05Z</time>
      </trkpt>
      <trkpt lat="43.39146" lon="6.11073">
        <ele>240</ele>
        <time>2012-12-22T14:04:11Z</time>
      </trkpt>
      <trkpt lat="43.3914" lon="6.11131">
        <ele>241</ele>
        <time>2012-12-22T14:04:31Z</time>
      </trkpt>
      <trkpt lat="43.39139" lon="6.11146">
        <ele>241</ele>
        <time>2012-12-22T14:04:36Z</time>
      </trkpt>
      <trkpt lat="43.39136" lon="6.11158">
        <ele>241</ele>
        <time>2012-12-22T14:04:41Z</time>
      </trkpt>
      <trkpt lat="43.3913" lon="6.11166">
        <ele>242</ele>
        <time>2012-12-22T14:04:46Z</time>
      </trkpt>
      <trkpt lat="43.39122" lon="6.11168">
        <ele>243</ele>
        <time>2012-12-22T14:04:51Z</time>
      </trkpt>
      <trkpt lat="43.39119" lon="6.11171">
        <ele>245</ele>
        <time>2012-12-22T14:05:06Z</time>
      </trkpt>
      <trkpt lat="43.39115" lon="6.1117">
        <ele>246</ele>
        <time>2012-12-22T14:05:17Z</time>
      </trkpt>
      <trkpt lat="43.39113" lon="6.11173">
        <ele>246</ele>
        <time>2012-12-22T14:05:47Z</time>
      </trkpt>
      <trkpt lat="43.39113" lon="6.11171">
        <ele>246</ele>
        <time>2012-12-22T14:06:48Z</time>
      </trkpt>
      <trkpt lat="43.3911" lon="6.11176">
        <ele>246</ele>
        <time>2012-12-22T14:07:13Z</time>
      </trkpt>
      <trkpt lat="43.39106" lon="6.1122">
        <ele>248</ele>
        <time>2012-12-22T14:07:39Z</time>
      </trkpt>
      <trkpt lat="43.39102" lon="6.11255">
        <ele>248</ele>
        <time>2012-12-22T14:07:54Z</time>
      </trkpt>
      <trkpt lat="43.39093" lon="6.11286">
        <ele>247</ele>
        <time>2012-12-22T14:08:04Z</time>
      </trkpt>
      <trkpt lat="43.39088" lon="6.11295">
        <ele>248</ele>
        <time>2012-12-22T14:08:09Z</time>
      </trkpt>
      <trkpt lat="43.39082" lon="6.11292">
        <ele>249</ele>
        <time>2012-12-22T14:08:15Z</time>
      </trkpt>
      <trkpt lat="43.39059" lon="6.11256">
        <ele>250</ele>
        <time>2012-12-22T14:08:40Z</time>
      </trkpt>
      <trkpt lat="43.39045" lon="6.11241">
        <ele>251</ele>
        <time>2012-12-22T14:08:50Z</time>
      </trkpt>
      <trkpt lat="43.39032" lon="6.11212">
        <ele>249</ele>
        <time>2012-12-22T14:09:00Z</time>
      </trkpt>
      <trkpt lat="43.39017" lon="6.11196">
        <ele>248</ele>
        <time>2012-12-22T14:09:10Z</time>
      </trkpt>
      <trkpt lat="43.39002" lon="6.1119">
        <ele>246</ele>
        <time>2012-12-22T14:09:16Z</time>
      </trkpt>
      <trkpt lat="43.38954" lon="6.11195">
        <ele>240</ele>
        <time>2012-12-22T14:09:26Z</time>
      </trkpt>
      <trkpt lat="43.38927" lon="6.11186">
        <ele>239</ele>
        <time>2012-12-22T14:09:56Z</time>
      </trkpt>
      <trkpt lat="43.38903" lon="6.11178">
        <ele>238</ele>
        <time>2012-12-22T14:10:06Z</time>
      </trkpt>
      <trkpt lat="43.38875" lon="6.11175">
        <ele>238</ele>
        <time>2012-12-22T14:10:17Z</time>
      </trkpt>
      <trkpt lat="43.38849" lon="6.11169">
        <ele>240</ele>
        <time>2012-12-22T14:10:27Z</time>
      </trkpt>
      <trkpt lat="43.38827" lon="6.11158">
        <ele>240</ele>
        <time>2012-12-22T14:10:37Z</time>
      </trkpt>
      <trkpt lat="43.38774" lon="6.11121">
        <ele>242</ele>
        <time>2012-12-22T14:11:02Z</time>
      </trkpt>
      <trkpt lat="43.38753" lon="6.11115">
        <ele>242</ele>
        <time>2012-12-22T14:11:12Z</time>
      </trkpt>
      <trkpt lat="43.38711" lon="6.11101">
        <ele>242</ele>
        <time>2012-12-22T14:11:48Z</time>
      </trkpt>
      <trkpt lat="43.38705" lon="6.11092">
        <ele>242</ele>
        <time>2012-12-22T14:12:34Z</time>
      </trkpt>
      <trkpt lat="43.38704" lon="6.11063">
        <ele>243</ele>
        <time>2012-12-22T14:12:44Z</time>
      </trkpt>
      <trkpt lat="43.38686" lon="6.11051">
        <ele>242</ele>
        <time>2012-12-22T14:12:54Z</time>
      </trkpt>
      <trkpt lat="43.38678" lon="6.11042">
        <ele>243</ele>
        <time>2012-12-22T14:12:59Z</time>
      </trkpt>
      <trkpt lat="43.38625" lon="6.10995">
        <ele>248</ele>
        <time>2012-12-22T14:13:29Z</time>
      </trkpt>
      <trkpt lat="43.38607" lon="6.10985">
        <ele>248</ele>
        <time>2012-12-22T14:13:40Z</time>
      </trkpt>
      <trkpt lat="43.3856" lon="6.10984">
        <ele>246</ele>
        <time>2012-12-22T14:13:55Z</time>
      </trkpt>
      <trkpt lat="43.38537" lon="6.10973">
        <ele>245</ele>
        <time>2012-12-22T14:14:00Z</time>
      </trkpt>
      <trkpt lat="43.38494" lon="6.1096">
        <ele>240</ele>
        <time>2012-12-22T14:14:10Z</time>
      </trkpt>
      <trkpt lat="43.3848" lon="6.10956">
        <ele>239</ele>
        <time>2012-12-22T14:14:15Z</time>
      </trkpt>
      <trkpt lat="43.38456" lon="6.10956">
        <ele>238</ele>
        <time>2012-12-22T14:14:26Z</time>
      </trkpt>
      <trkpt lat="43.38374" lon="6.10939">
        <ele>236</ele>
        <time>2012-12-22T14:14:46Z</time>
      </trkpt>
      <trkpt lat="43.38353" lon="6.10933">
        <ele>236</ele>
        <time>2012-12-22T14:14:51Z</time>
      </trkpt>
      <trkpt lat="43.38211" lon="6.10888">
        <ele>235</ele>
        <time>2012-12-22T14:15:26Z</time>
      </trkpt>
      <trkpt lat="43.38198" lon="6.10893">
        <ele>235</ele>
        <time>2012-12-22T14:15:32Z</time>
      </trkpt>
      <trkpt lat="43.38157" lon="6.11074">
        <ele>240</ele>
        <time>2012-12-22T14:16:17Z</time>
      </trkpt>
      <trkpt lat="43.38145" lon="6.11105">
        <ele>240</ele>
        <time>2012-12-22T14:16:27Z</time>
      </trkpt>
      <trkpt lat="43.38117" lon="6.1114">
        <ele>242</ele>
        <time>2012-12-22T14:16:42Z</time>
      </trkpt>
      <trkpt lat="43.38117" lon="6.11228">
        <ele>244</ele>
        <time>2012-12-22T14:17:18Z</time>
      </trkpt>
      <trkpt lat="43.38118" lon="6.11233">
        <ele>244</ele>
        <time>2012-12-22T14:17:28Z</time>
      </trkpt>
      <trkpt lat="43.38121" lon="6.11236">
        <ele>245</ele>
        <time>2012-12-22T14:17:33Z</time>
      </trkpt>
      <trkpt lat="43.38121" lon="6.11186">
        <ele>244</ele>
        <time>2012-12-22T14:17:48Z</time>
      </trkpt>
      <trkpt lat="43.38117" lon="6.11157">
        <ele>243</ele>
        <time>2012-12-22T14:17:53Z</time>
      </trkpt>
      <trkpt lat="43.38128" lon="6.1113">
        <ele>242</ele>
        <time>2012-12-22T14:18:09Z</time>
      </trkpt>
      <trkpt lat="43.38119" lon="6.11139">
        <ele>242</ele>
        <time>2012-12-22T14:18:24Z</time>
      </trkpt>
      <trkpt lat="43.38117" lon="6.11145">
        <ele>242</ele>
        <time>2012-12-22T14:20:26Z</time>
      </trkpt>
      <trkpt lat="43.38116" lon="6.11147">
        <ele>242</ele>
        <time>2012-12-22T14:20:52Z</time>
      </trkpt>
      <trkpt lat="43.38065" lon="6.11203">
        <ele>245</ele>
        <time>2012-12-22T14:21:27Z</time>
      </trkpt>
      <trkpt lat="43.38056" lon="6.11214">
        <ele>245</ele>
        <time>2012-12-22T14:21:32Z</time>
      </trkpt>
      <trkpt lat="43.38007" lon="6.11317">
        <ele>245</ele>
        <time>2012-12-22T14:22:03Z</time>
      </trkpt>
      <trkpt lat="43.37982" lon="6.1136">
        <ele>244</ele>
        <time>2012-12-22T14:22:13Z</time>
      </trkpt>
      <trkpt lat="43.37914" lon="6.11444">
        <ele>244</ele>
        <time>2012-12-22T14:23:09Z</time>
      </trkpt>
      <trkpt lat="43.37888" lon="6.11465">
        <ele>245</ele>
        <time>2012-12-22T14:23:19Z</time>
      </trkpt>
      <trkpt lat="43.37862" lon="6.11476">
        <ele>245</ele>
        <time>2012-12-22T14:23:29Z</time>
      </trkpt>
      <trkpt lat="43.37854" lon="6.11488">
        <ele>246</ele>
        <time>2012-12-22T14:23:34Z</time>
      </trkpt>
      <trkpt lat="43.37817" lon="6.11565">
        <ele>249</ele>
        <time>2012-12-22T14:24:05Z</time>
      </trkpt>
      <trkpt lat="43.37808" lon="6.11574">
        <ele>250</ele>
        <time>2012-12-22T14:24:10Z</time>
      </trkpt>
      <trkpt lat="43.37786" lon="6.11602">
        <ele>251</ele>
        <time>2012-12-22T14:24:26Z</time>
      </trkpt>
      <trkpt lat="43.37766" lon="6.11634">
        <ele>252</ele>
        <time>2012-12-22T14:24:41Z</time>
      </trkpt>
      <trkpt lat="43.377" lon="6.11765">
        <ele>258</ele>
        <time>2012-12-22T14:25:37Z</time>
      </trkpt>
      <trkpt lat="43.37679" lon="6.11822">
        <ele>263</ele>
        <time>2012-12-22T14:26:02Z</time>
      </trkpt>
      <trkpt lat="43.37669" lon="6.11838">
        <ele>264</ele>
        <time>2012-12-22T14:26:12Z</time>
      </trkpt>
      <trkpt lat="43.37622" lon="6.11909">
        <ele>270</ele>
        <time>2012-12-22T14:26:58Z</time>
      </trkpt>
      <trkpt lat="43.3763" lon="6.11952">
        <ele>273</ele>
        <time>2012-12-22T14:27:23Z</time>
      </trkpt>
      <trkpt lat="43.37629" lon="6.11977">
        <ele>274</ele>
        <time>2012-12-22T14:28:09Z</time>
      </trkpt>
      <trkpt lat="43.37627" lon="6.11987">
        <ele>275</ele>
        <time>2012-12-22T14:28:14Z</time>
      </trkpt>
      <trkpt lat="43.37612" lon="6.12047">
        <ele>280</ele>
        <time>2012-12-22T14:28:49Z</time>
      </trkpt>
      <trkpt lat="43.37608" lon="6.12054">
        <ele>281</ele>
        <time>2012-12-22T14:29:09Z</time>
      </trkpt>
      <trkpt lat="43.37596" lon="6.12086">
        <ele>281</ele>
        <time>2012-12-22T14:29:39Z</time>
      </trkpt>
      <trkpt lat="43.37593" lon="6.12095">
        <ele>282</ele>
        <time>2012-12-22T14:29:44Z</time>
      </trkpt>
      <trkpt lat="43.37577" lon="6.12117">
        <ele>284</ele>
        <time>2012-12-22T14:30:00Z</time>
      </trkpt>
      <trkpt lat="43.37539" lon="6.12173">
        <ele>288</ele>
        <time>2012-12-22T14:30:35Z</time>
      </trkpt>
      <trkpt lat="43.37519" lon="6.12204">
        <ele>290</ele>
        <time>2012-12-22T14:30:55Z</time>
      </trkpt>
      <trkpt lat="43.37513" lon="6.12222">
        <ele>291</ele>
        <time>2012-12-22T14:31:16Z</time>
      </trkpt>
      <trkpt lat="43.37512" lon="6.12224">
        <ele>291</ele>
        <time>2012-12-22T14:31:26Z</time>
      </trkpt>
      <trkpt lat="43.37518" lon="6.12274">
        <ele>292</ele>
        <time>2012-12-22T14:31:56Z</time>
      </trkpt>
      <trkpt lat="43.37516" lon="6.12299">
        <ele>293</ele>
        <time>2012-12-22T14:32:06Z</time>
      </trkpt>
      <trkpt lat="43.37506" lon="6.12368">
        <ele>299</ele>
        <time>2012-12-22T14:32:42Z</time>
      </trkpt>
      <trkpt lat="43.37508" lon="6.12377">
        <ele>300</ele>
        <time>2012-12-22T14:32:47Z</time>
      </trkpt>
      <trkpt lat="43.37509" lon="6.12381">
        <ele>300</ele>
        <time>2012-12-22T14:32:57Z</time>
      </trkpt>
      <trkpt lat="43.37509" lon="6.12384">
        <ele>300</ele>
        <time>2012-12-22T14:33:07Z</time>
      </trkpt>
      <trkpt lat="43.37528" lon="6.12375">
        <ele>300</ele>
        <time>2012-12-22T14:33:53Z</time>
      </trkpt>
      <trkpt lat="43.37518" lon="6.1238">
        <ele>300</ele>
        <time>2012-12-22T14:34:23Z</time>
      </trkpt>
      <trkpt lat="43.37515" lon="6.12376">
        <ele>300</ele>
        <time>2012-12-22T14:34:59Z</time>
      </trkpt>
      <trkpt lat="43.37513" lon="6.12376">
        <ele>300</ele>
        <time>2012-12-22T14:35:14Z</time>
      </trkpt>
      <trkpt lat="43.37511" lon="6.12377">
        <ele>300</ele>
        <time>2012-12-22T14:35:24Z</time>
      </trkpt>
      <trkpt lat="43.37519" lon="6.12387">
        <ele>301</ele>
        <time>2012-12-22T14:35:34Z</time>
      </trkpt>
      <trkpt lat="43.37529" lon="6.12415">
        <ele>302</ele>
        <time>2012-12-22T14:35:44Z</time>
      </trkpt>
      <trkpt lat="43.37532" lon="6.12425">
        <ele>304</ele>
        <time>2012-12-22T14:35:49Z</time>
      </trkpt>
      <trkpt lat="43.37541" lon="6.1244">
        <ele>306</ele>
        <time>2012-12-22T14:35:59Z</time>
      </trkpt>
      <trkpt lat="43.37543" lon="6.1245">
        <ele>307</ele>
        <time>2012-12-22T14:36:04Z</time>
      </trkpt>
      <trkpt lat="43.37541" lon="6.12459">
        <ele>307</ele>
        <time>2012-12-22T14:36:09Z</time>
      </trkpt>
      <trkpt lat="43.37539" lon="6.12465">
        <ele>308</ele>
        <time>2012-12-22T14:36:14Z</time>
      </trkpt>
      <trkpt lat="43.37539" lon="6.12486">
        <ele>308</ele>
        <time>2012-12-22T14:36:25Z</time>
      </trkpt>
      <trkpt lat="43.3754" lon="6.12494">
        <ele>308</ele>
        <time>2012-12-22T14:36:30Z</time>
      </trkpt>
      <trkpt lat="43.37543" lon="6.12502">
        <ele>308</ele>
        <time>2012-12-22T14:36:35Z</time>
      </trkpt>
      <trkpt lat="43.37553" lon="6.12509">
        <ele>306</ele>
        <time>2012-12-22T14:36:45Z</time>
      </trkpt>
      <trkpt lat="43.37562" lon="6.12511">
        <ele>304</ele>
        <time>2012-12-22T14:36:50Z</time>
      </trkpt>
      <trkpt lat="43.37584" lon="6.12497">
        <ele>302</ele>
        <time>2012-12-22T14:36:55Z</time>
      </trkpt>
      <trkpt lat="43.37613" lon="6.12491">
        <ele>298</ele>
        <time>2012-12-22T14:37:00Z</time>
      </trkpt>
      <trkpt lat="43.37627" lon="6.12472">
        <ele>296</ele>
        <time>2012-12-22T14:37:05Z</time>
      </trkpt>
      <trkpt lat="43.37637" lon="6.12447">
        <ele>294</ele>
        <time>2012-12-22T14:37:10Z</time>
      </trkpt>
      <trkpt lat="43.37632" lon="6.12426">
        <ele>294</ele>
        <time>2012-12-22T14:37:20Z</time>
      </trkpt>
      <trkpt lat="43.37636" lon="6.12408">
        <ele>292</ele>
        <time>2012-12-22T14:37:25Z</time>
      </trkpt>
      <trkpt lat="43.3763" lon="6.12388">
        <ele>291</ele>
        <time>2012-12-22T14:37:30Z</time>
      </trkpt>
      <trkpt lat="43.37629" lon="6.1236">
        <ele>290</ele>
        <time>2012-12-22T14:37:35Z</time>
      </trkpt>
      <trkpt lat="43.37636" lon="6.12333">
        <ele>288</ele>
        <time>2012-12-22T14:37:40Z</time>
      </trkpt>
      <trkpt lat="43.37655" lon="6.12306">
        <ele>286</ele>
        <time>2012-12-22T14:37:45Z</time>
      </trkpt>
      <trkpt lat="43.3768" lon="6.12284">
        <ele>281</ele>
        <time>2012-12-22T14:37:50Z</time>
      </trkpt>
      <trkpt lat="43.37707" lon="6.12299">
        <ele>279</ele>
        <time>2012-12-22T14:37:55Z</time>
      </trkpt>
      <trkpt lat="43.37709" lon="6.12324">
        <ele>279</ele>
        <time>2012-12-22T14:38:00Z</time>
      </trkpt>
      <trkpt lat="43.37717" lon="6.12336">
        <ele>277</ele>
        <time>2012-12-22T14:38:05Z</time>
      </trkpt>
      <trkpt lat="43.37721" lon="6.12334">
        <ele>275</ele>
        <time>2012-12-22T14:38:10Z</time>
      </trkpt>
      <trkpt lat="43.37722" lon="6.12331">
        <ele>274</ele>
        <time>2012-12-22T14:38:25Z</time>
      </trkpt>
      <trkpt lat="43.37726" lon="6.12328">
        <ele>275</ele>
        <time>2012-12-22T14:38:36Z</time>
      </trkpt>
      <trkpt lat="43.37732" lon="6.12332">
        <ele>276</ele>
        <time>2012-12-22T14:38:41Z</time>
      </trkpt>
      <trkpt lat="43.37736" lon="6.12343">
        <ele>276</ele>
        <time>2012-12-22T14:38:46Z</time>
      </trkpt>
      <trkpt lat="43.37732" lon="6.12361">
        <ele>277</ele>
        <time>2012-12-22T14:38:56Z</time>
      </trkpt>
      <trkpt lat="43.37728" lon="6.12377">
        <ele>278</ele>
        <time>2012-12-22T14:39:01Z</time>
      </trkpt>
      <trkpt lat="43.37724" lon="6.12448">
        <ele>280</ele>
        <time>2012-12-22T14:39:26Z</time>
      </trkpt>
      <trkpt lat="43.37714" lon="6.12487">
        <ele>282</ele>
        <time>2012-12-22T14:39:42Z</time>
      </trkpt>
      <trkpt lat="43.37711" lon="6.12512">
        <ele>283</ele>
        <time>2012-12-22T14:39:52Z</time>
      </trkpt>
      <trkpt lat="43.3771" lon="6.12526">
        <ele>283</ele>
        <time>2012-12-22T14:39:57Z</time>
      </trkpt>
      <trkpt lat="43.37702" lon="6.12663">
        <ele>285</ele>
        <time>2012-12-22T14:40:42Z</time>
      </trkpt>
      <trkpt lat="43.37698" lon="6.12726">
        <ele>287</ele>
        <time>2012-12-22T14:41:08Z</time>
      </trkpt>
      <trkpt lat="43.37702" lon="6.12766">
        <ele>289</ele>
        <time>2012-12-22T14:41:23Z</time>
      </trkpt>
      <trkpt lat="43.37709" lon="6.12818">
        <ele>292</ele>
        <time>2012-12-22T14:41:48Z</time>
      </trkpt>
      <trkpt lat="43.37706" lon="6.12826">
        <ele>292</ele>
        <time>2012-12-22T14:42:04Z</time>
      </trkpt>
      <trkpt lat="43.37703" lon="6.12841">
        <ele>292</ele>
        <time>2012-12-22T14:42:09Z</time>
      </trkpt>
      <trkpt lat="43.37697" lon="6.12902">
        <ele>293</ele>
        <time>2012-12-22T14:42:34Z</time>
      </trkpt>
      <trkpt lat="43.3768" lon="6.12953">
        <ele>294</ele>
        <time>2012-12-22T14:42:54Z</time>
      </trkpt>
      <trkpt lat="43.37679" lon="6.12977">
        <ele>294</ele>
        <time>2012-12-22T14:43:04Z</time>
      </trkpt>
      <trkpt lat="43.37669" lon="6.12976">
        <ele>294</ele>
        <time>2012-12-22T14:43:14Z</time>
      </trkpt>
      <trkpt lat="43.37662" lon="6.12986">
        <ele>295</ele>
        <time>2012-12-22T14:43:35Z</time>
      </trkpt>
      <trkpt lat="43.37662" lon="6.12991">
        <ele>295</ele>
        <time>2012-12-22T14:43:50Z</time>
      </trkpt>
      <trkpt lat="43.37666" lon="6.12998">
        <ele>296</ele>
        <time>2012-12-22T14:43:55Z</time>
      </trkpt>
      <trkpt lat="43.37667" lon="6.13023">
        <ele>296</ele>
        <time>2012-12-22T14:44:05Z</time>
      </trkpt>
      <trkpt lat="43.37664" lon="6.13033">
        <ele>296</ele>
        <time>2012-12-22T14:44:10Z</time>
      </trkpt>
      <trkpt lat="43.37637" lon="6.13076">
        <ele>298</ele>
        <time>2012-12-22T14:44:35Z</time>
      </trkpt>
      <trkpt lat="43.37605" lon="6.13127">
        <ele>300</ele>
        <time>2012-12-22T14:45:06Z</time>
      </trkpt>
      <trkpt lat="43.37582" lon="6.13179">
        <ele>303</ele>
        <time>2012-12-22T14:45:31Z</time>
      </trkpt>
      <trkpt lat="43.37574" lon="6.13215">
        <ele>304</ele>
        <time>2012-12-22T14:45:47Z</time>
      </trkpt>
      <trkpt lat="43.37569" lon="6.13281">
        <ele>307</ele>
        <time>2012-12-22T14:46:22Z</time>
      </trkpt>
      <trkpt lat="43.37569" lon="6.13285">
        <ele>307</ele>
        <time>2012-12-22T14:46:58Z</time>
      </trkpt>
      <trkpt lat="43.37566" lon="6.13289">
        <ele>308</ele>
        <time>2012-12-22T14:47:18Z</time>
      </trkpt>
      <trkpt lat="43.37565" lon="6.13297">
        <ele>308</ele>
        <time>2012-12-22T14:47:23Z</time>
      </trkpt>
      <trkpt lat="43.37565" lon="6.13329">
        <ele>309</ele>
        <time>2012-12-22T14:47:38Z</time>
      </trkpt>
      <trkpt lat="43.37565" lon="6.1333">
        <ele>310</ele>
        <time>2012-12-22T14:47:43Z</time>
      </trkpt>
      <trkpt lat="43.37564" lon="6.13331">
        <ele>311</ele>
        <time>2012-12-22T14:47:59Z</time>
      </trkpt>
      <trkpt lat="43.37562" lon="6.13332">
        <ele>311</ele>
        <time>2012-12-22T14:48:09Z</time>
      </trkpt>
      <trkpt lat="43.3756" lon="6.13328">
        <ele>310</ele>
        <time>2012-12-22T14:48:45Z</time>
      </trkpt>
      <trkpt lat="43.37566" lon="6.13329">
        <ele>311</ele>
        <time>2012-12-22T14:49:30Z</time>
      </trkpt>
      <trkpt lat="43.37565" lon="6.1333">
        <ele>312</ele>
        <time>2012-12-22T14:50:01Z</time>
      </trkpt>
      <trkpt lat="43.37558" lon="6.13341">
        <ele>311</ele>
        <time>2012-12-22T14:50:21Z</time>
      </trkpt>
      <trkpt lat="43.37552" lon="6.13343">
        <ele>311</ele>
        <time>2012-12-22T14:50:26Z</time>
      </trkpt>
      <trkpt lat="43.37542" lon="6.13362">
        <ele>311</ele>
        <time>2012-12-22T14:51:11Z</time>
      </trkpt>
      <trkpt lat="43.37543" lon="6.13359">
        <ele>312</ele>
        <time>2012-12-22T14:51:17Z</time>
      </trkpt>
      <trkpt lat="43.37549" lon="6.13349">
        <ele>311</ele>
        <time>2012-12-22T14:51:27Z</time>
      </trkpt>
      <trkpt lat="43.37559" lon="6.13342">
        <ele>312</ele>
        <time>2012-12-22T14:51:47Z</time>
      </trkpt>
      <trkpt lat="43.3756" lon="6.13337">
        <ele>312</ele>
        <time>2012-12-22T14:52:07Z</time>
      </trkpt>
      <trkpt lat="43.37554" lon="6.1334">
        <ele>312</ele>
        <time>2012-12-22T14:52:38Z</time>
      </trkpt>
      <trkpt lat="43.37539" lon="6.13364">
        <ele>312</ele>
        <time>2012-12-22T14:53:23Z</time>
      </trkpt>
      <trkpt lat="43.37532" lon="6.13385">
        <ele>313</ele>
        <time>2012-12-22T14:53:33Z</time>
      </trkpt>
      <trkpt lat="43.37523" lon="6.13418">
        <ele>314</ele>
        <time>2012-12-22T14:53:49Z</time>
      </trkpt>
      <trkpt lat="43.37523" lon="6.1342">
        <ele>315</ele>
        <time>2012-12-22T14:54:04Z</time>
      </trkpt>
      <trkpt lat="43.37521" lon="6.13419">
        <ele>314</ele>
        <time>2012-12-22T14:54:34Z</time>
      </trkpt>
      <trkpt lat="43.37519" lon="6.13434">
        <ele>315</ele>
        <time>2012-12-22T14:56:26Z</time>
      </trkpt>
      <trkpt lat="43.37512" lon="6.13448">
        <ele>315</ele>
        <time>2012-12-22T14:56:56Z</time>
      </trkpt>
      <trkpt lat="43.37514" lon="6.13467">
        <ele>315</ele>
        <time>2012-12-22T14:57:06Z</time>
      </trkpt>
      <trkpt lat="43.37525" lon="6.13521">
        <ele>318</ele>
        <time>2012-12-22T14:57:37Z</time>
      </trkpt>
      <trkpt lat="43.37528" lon="6.13565">
        <ele>319</ele>
        <time>2012-12-22T14:57:57Z</time>
      </trkpt>
      <trkpt lat="43.37552" lon="6.13652">
        <ele>322</ele>
        <time>2012-12-22T14:58:43Z</time>
      </trkpt>
      <trkpt lat="43.37554" lon="6.13669">
        <ele>323</ele>
        <time>2012-12-22T14:59:03Z</time>
      </trkpt>
      <trkpt lat="43.37555" lon="6.13668">
        <ele>323</ele>
        <time>2012-12-22T14:59:29Z</time>
      </trkpt>
      <trkpt lat="43.37553" lon="6.13695">
        <ele>323</ele>
        <time>2012-12-22T15:00:04Z</time>
      </trkpt>
      <trkpt lat="43.37557" lon="6.13717">
        <ele>324</ele>
        <time>2012-12-22T15:00:14Z</time>
      </trkpt>
      <trkpt lat="43.37563" lon="6.13748">
        <ele>325</ele>
        <time>2012-12-22T15:00:29Z</time>
      </trkpt>
      <trkpt lat="43.37571" lon="6.13809">
        <ele>328</ele>
        <time>2012-12-22T15:01:10Z</time>
      </trkpt>
      <trkpt lat="43.37569" lon="6.13811">
        <ele>328</ele>
        <time>2012-12-22T15:01:40Z</time>
      </trkpt>
      <trkpt lat="43.37564" lon="6.13838">
        <ele>328</ele>
        <time>2012-12-22T15:02:20Z</time>
      </trkpt>
      <trkpt lat="43.37558" lon="6.13895">
        <ele>328</ele>
        <time>2012-12-22T15:02:41Z</time>
      </trkpt>
      <trkpt lat="43.37547" lon="6.13936">
        <ele>329</ele>
        <time>2012-12-22T15:02:56Z</time>
      </trkpt>
      <trkpt lat="43.37534" lon="6.13972">
        <ele>331</ele>
        <time>2012-12-22T15:03:11Z</time>
      </trkpt>
      <trkpt lat="43.37531" lon="6.1401">
        <ele>332</ele>
        <time>2012-12-22T15:03:26Z</time>
      </trkpt>
      <trkpt lat="43.37514" lon="6.14064">
        <ele>334</ele>
        <time>2012-12-22T15:03:52Z</time>
      </trkpt>
      <trkpt lat="43.37511" lon="6.141">
        <ele>337</ele>
        <time>2012-12-22T15:04:12Z</time>
      </trkpt>
      <trkpt lat="43.37495" lon="6.14127">
        <ele>338</ele>
        <time>2012-12-22T15:04:33Z</time>
      </trkpt>
      <trkpt lat="43.37488" lon="6.14134">
        <ele>339</ele>
        <time>2012-12-22T15:04:38Z</time>
      </trkpt>
      <trkpt lat="43.37474" lon="6.14152">
        <ele>341</ele>
        <time>2012-12-22T15:04:53Z</time>
      </trkpt>
      <trkpt lat="43.37462" lon="6.14155">
        <ele>342</ele>
        <time>2012-12-22T15:05:03Z</time>
      </trkpt>
      <trkpt lat="43.37445" lon="6.14167">
        <ele>345</ele>
        <time>2012-12-22T15:05:18Z</time>
      </trkpt>
      <trkpt lat="43.37407" lon="6.14187">
        <ele>352</ele>
        <time>2012-12-22T15:05:50Z</time>
      </trkpt>
      <trkpt lat="43.37402" lon="6.14189">
        <ele>352</ele>
        <time>2012-12-22T15:05:55Z</time>
      </trkpt>
      <trkpt lat="43.37387" lon="6.14188">
        <ele>353</ele>
        <time>2012-12-22T15:06:10Z</time>
      </trkpt>
      <trkpt lat="43.37378" lon="6.14194">
        <ele>353</ele>
        <time>2012-12-22T15:06:20Z</time>
      </trkpt>
      <trkpt lat="43.37365" lon="6.14212">
        <ele>355</ele>
        <time>2012-12-22T15:06:35Z</time>
      </trkpt>
      <trkpt lat="43.37354" lon="6.14239">
        <ele>357</ele>
        <time>2012-12-22T15:08:02Z</time>
      </trkpt>
      <trkpt lat="43.37352" lon="6.14236">
        <ele>357</ele>
        <time>2012-12-22T15:08:27Z</time>
      </trkpt>
      <trkpt lat="43.37351" lon="6.14231">
        <ele>356</ele>
        <time>2012-12-22T15:09:19Z</time>
      </trkpt>
      <trkpt lat="43.37353" lon="6.14234">
        <ele>356</ele>
        <time>2012-12-22T15:10:19Z</time>
      </trkpt>
      <trkpt lat="43.37365" lon="6.14202">
        <ele>354</ele>
        <time>2012-12-22T15:11:15Z</time>
      </trkpt>
      <trkpt lat="43.37371" lon="6.14195">
        <ele>354</ele>
        <time>2012-12-22T15:11:20Z</time>
      </trkpt>
      <trkpt lat="43.3739" lon="6.14192">
        <ele>353</ele>
        <time>2012-12-22T15:11:41Z</time>
      </trkpt>
      <trkpt lat="43.37391" lon="6.14192">
        <ele>352</ele>
        <time>2012-12-22T15:11:46Z</time>
      </trkpt>
      <trkpt lat="43.37382" lon="6.14189">
        <ele>353</ele>
        <time>2012-12-22T15:12:01Z</time>
      </trkpt>
      <trkpt lat="43.37376" lon="6.14192">
        <ele>353</ele>
        <time>2012-12-22T15:12:06Z</time>
      </trkpt>
      <trkpt lat="43.37354" lon="6.14235">
        <ele>356</ele>
        <time>2012-12-22T15:12:52Z</time>
      </trkpt>
      <trkpt lat="43.37352" lon="6.14236">
        <ele>356</ele>
        <time>2012-12-22T15:13:18Z</time>
      </trkpt>
      <trkpt lat="43.37325" lon="6.14263">
        <ele>353</ele>
        <time>2012-12-22T15:13:58Z</time>
      </trkpt>
      <trkpt lat="43.37309" lon="6.14281">
        <ele>350</ele>
        <time>2012-12-22T15:14:03Z</time>
      </trkpt>
      <trkpt lat="43.37286" lon="6.14294">
        <ele>346</ele>
        <time>2012-12-22T15:14:08Z</time>
      </trkpt>
      <trkpt lat="43.37265" lon="6.14314">
        <ele>343</ele>
        <time>2012-12-22T15:14:13Z</time>
      </trkpt>
      <trkpt lat="43.37257" lon="6.14316">
        <ele>341</ele>
        <time>2012-12-22T15:14:18Z</time>
      </trkpt>
      <trkpt lat="43.37245" lon="6.14313">
        <ele>340</ele>
        <time>2012-12-22T15:14:23Z</time>
      </trkpt>
      <trkpt lat="43.37231" lon="6.14319">
        <ele>338</ele>
        <time>2012-12-22T15:14:28Z</time>
      </trkpt>
      <trkpt lat="43.37202" lon="6.14339">
        <ele>337</ele>
        <time>2012-12-22T15:14:38Z</time>
      </trkpt>
      <trkpt lat="43.37183" lon="6.14364">
        <ele>335</ele>
        <time>2012-12-22T15:14:48Z</time>
      </trkpt>
      <trkpt lat="43.37175" lon="6.14369">
        <ele>335</ele>
        <time>2012-12-22T15:14:53Z</time>
      </trkpt>
      <trkpt lat="43.37168" lon="6.1437">
        <ele>335</ele>
        <time>2012-12-22T15:15:03Z</time>
      </trkpt>
      <trkpt lat="43.37153" lon="6.14363">
        <ele>335</ele>
        <time>2012-12-22T15:15:19Z</time>
      </trkpt>
      <trkpt lat="43.37136" lon="6.14366">
        <ele>335</ele>
        <time>2012-12-22T15:15:29Z</time>
      </trkpt>
      <trkpt lat="43.37124" lon="6.14362">
        <ele>335</ele>
        <time>2012-12-22T15:15:34Z</time>
      </trkpt>
      <trkpt lat="43.37112" lon="6.14354">
        <ele>335</ele>
        <time>2012-12-22T15:15:39Z</time>
      </trkpt>
      <trkpt lat="43.37099" lon="6.14344">
        <ele>335</ele>
        <time>2012-12-22T15:15:44Z</time>
      </trkpt>
      <trkpt lat="43.3709" lon="6.14326">
        <ele>334</ele>
        <time>2012-12-22T15:15:49Z</time>
      </trkpt>
      <trkpt lat="43.37074" lon="6.14275">
        <ele>332</ele>
        <time>2012-12-22T15:15:59Z</time>
      </trkpt>
      <trkpt lat="43.37062" lon="6.14217">
        <ele>330</ele>
        <time>2012-12-22T15:16:10Z</time>
      </trkpt>
      <trkpt lat="43.37037" lon="6.14171">
        <ele>330</ele>
        <time>2012-12-22T15:16:20Z</time>
      </trkpt>
      <trkpt lat="43.37025" lon="6.14142">
        <ele>329</ele>
        <time>2012-12-22T15:16:25Z</time>
      </trkpt>
      <trkpt lat="43.37008" lon="6.14114">
        <ele>328</ele>
        <time>2012-12-22T15:16:30Z</time>
      </trkpt>
      <trkpt lat="43.36989" lon="6.141">
        <ele>327</ele>
        <time>2012-12-22T15:16:35Z</time>
      </trkpt>
      <trkpt lat="43.36976" lon="6.14096">
        <ele>327</ele>
        <time>2012-12-22T15:16:40Z</time>
      </trkpt>
      <trkpt lat="43.36966" lon="6.14096">
        <ele>326</ele>
        <time>2012-12-22T15:16:45Z</time>
      </trkpt>
      <trkpt lat="43.36946" lon="6.14111">
        <ele>328</ele>
        <time>2012-12-22T15:16:56Z</time>
      </trkpt>
      <trkpt lat="43.36935" lon="6.14114">
        <ele>329</ele>
        <time>2012-12-22T15:17:01Z</time>
      </trkpt>
      <trkpt lat="43.36924" lon="6.14107">
        <ele>330</ele>
        <time>2012-12-22T15:17:06Z</time>
      </trkpt>
      <trkpt lat="43.36897" lon="6.14115">
        <ele>329</ele>
        <time>2012-12-22T15:17:16Z</time>
      </trkpt>
      <trkpt lat="43.36881" lon="6.14085">
        <ele>327</ele>
        <time>2012-12-22T15:17:21Z</time>
      </trkpt>
      <trkpt lat="43.36856" lon="6.13979">
        <ele>317</ele>
        <time>2012-12-22T15:17:36Z</time>
      </trkpt>
      <trkpt lat="43.36841" lon="6.13963">
        <ele>316</ele>
        <time>2012-12-22T15:17:46Z</time>
      </trkpt>
      <trkpt lat="43.36833" lon="6.13956">
        <ele>316</ele>
        <time>2012-12-22T15:17:51Z</time>
      </trkpt>
      <trkpt lat="43.36826" lon="6.13958">
        <ele>316</ele>
        <time>2012-12-22T15:17:56Z</time>
      </trkpt>
      <trkpt lat="43.36817" lon="6.13977">
        <ele>318</ele>
        <time>2012-12-22T15:18:07Z</time>
      </trkpt>
      <trkpt lat="43.36796" lon="6.13988">
        <ele>320</ele>
        <time>2012-12-22T15:18:17Z</time>
      </trkpt>
      <trkpt lat="43.36776" lon="6.14005">
        <ele>320</ele>
        <time>2012-12-22T15:18:27Z</time>
      </trkpt>
      <trkpt lat="43.3676" lon="6.14014">
        <ele>324</ele>
        <time>2012-12-22T15:18:37Z</time>
      </trkpt>
      <trkpt lat="43.36752" lon="6.14014">
        <ele>324</ele>
        <time>2012-12-22T15:18:42Z</time>
      </trkpt>
      <trkpt lat="43.3674" lon="6.14008">
        <ele>324</ele>
        <time>2012-12-22T15:18:47Z</time>
      </trkpt>
      <trkpt lat="43.3673" lon="6.14002">
        <ele>324</ele>
        <time>2012-12-22T15:18:53Z</time>
      </trkpt>
      <trkpt lat="43.36722" lon="6.14001">
        <ele>325</ele>
        <time>2012-12-22T15:18:58Z</time>
      </trkpt>
      <trkpt lat="43.36715" lon="6.14004">
        <ele>325</ele>
        <time>2012-12-22T15:19:03Z</time>
      </trkpt>
      <trkpt lat="43.36698" lon="6.14026">
        <ele>325</ele>
        <time>2012-12-22T15:19:13Z</time>
      </trkpt>
      <trkpt lat="43.3669" lon="6.14031">
        <ele>325</ele>
        <time>2012-12-22T15:19:18Z</time>
      </trkpt>
      <trkpt lat="43.36668" lon="6.14063">
        <ele>324</ele>
        <time>2012-12-22T15:19:33Z</time>
      </trkpt>
      <trkpt lat="43.36665" lon="6.14076">
        <ele>325</ele>
        <time>2012-12-22T15:19:38Z</time>
      </trkpt>
      <trkpt lat="43.3666" lon="6.14108">
        <ele>326</ele>
        <time>2012-12-22T15:19:53Z</time>
      </trkpt>
      <trkpt lat="43.3666" lon="6.14136">
        <ele>327</ele>
        <time>2012-12-22T15:20:08Z</time>
      </trkpt>
      <trkpt lat="43.36666" lon="6.14164">
        <ele>329</ele>
        <time>2012-12-22T15:20:23Z</time>
      </trkpt>
      <trkpt lat="43.3667" lon="6.14174">
        <ele>330</ele>
        <time>2012-12-22T15:21:34Z</time>
      </trkpt>
      <trkpt lat="43.36676" lon="6.14237">
        <ele>331</ele>
        <time>2012-12-22T15:21:59Z</time>
      </trkpt>
      <trkpt lat="43.36676" lon="6.14251">
        <ele>332</ele>
        <time>2012-12-22T15:22:04Z</time>
      </trkpt>
      <trkpt lat="43.36675" lon="6.14287">
        <ele>333</ele>
        <time>2012-12-22T15:22:19Z</time>
      </trkpt>
      <trkpt lat="43.36668" lon="6.14325">
        <ele>335</ele>
        <time>2012-12-22T15:22:45Z</time>
      </trkpt>
      <trkpt lat="43.36668" lon="6.14326">
        <ele>335</ele>
        <time>2012-12-22T15:22:55Z</time>
      </trkpt>
      <trkpt lat="43.36645" lon="6.14369">
        <ele>335</ele>
        <time>2012-12-22T15:23:20Z</time>
      </trkpt>
      <trkpt lat="43.36637" lon="6.14379">
        <ele>335</ele>
        <time>2012-12-22T15:23:25Z</time>
      </trkpt>
      <trkpt lat="43.36623" lon="6.14395">
        <ele>337</ele>
        <time>2012-12-22T15:23:35Z</time>
      </trkpt>
      <trkpt lat="43.36598" lon="6.14432">
        <ele>339</ele>
        <time>2012-12-22T15:23:56Z</time>
      </trkpt>
      <trkpt lat="43.36593" lon="6.14456">
        <ele>340</ele>
        <time>2012-12-22T15:24:21Z</time>
      </trkpt>
      <trkpt lat="43.36592" lon="6.14457">
        <ele>340</ele>
        <time>2012-12-22T15:24:46Z</time>
      </trkpt>
      <trkpt lat="43.36599" lon="6.14457">
        <ele>340</ele>
        <time>2012-12-22T15:25:32Z</time>
      </trkpt>
      <trkpt lat="43.36586" lon="6.14458">
        <ele>339</ele>
        <time>2012-12-22T15:26:18Z</time>
      </trkpt>
      <trkpt lat="43.36581" lon="6.14443">
        <ele>339</ele>
        <time>2012-12-22T15:26:23Z</time>
      </trkpt>
      <trkpt lat="43.3658" lon="6.14428">
        <ele>340</ele>
        <time>2012-12-22T15:26:28Z</time>
      </trkpt>
      <trkpt lat="43.36576" lon="6.144">
        <ele>342</ele>
        <time>2012-12-22T15:26:38Z</time>
      </trkpt>
      <trkpt lat="43.36569" lon="6.14393">
        <ele>343</ele>
        <time>2012-12-22T15:26:43Z</time>
      </trkpt>
      <trkpt lat="43.36557" lon="6.14385">
        <ele>346</ele>
        <time>2012-12-22T15:26:53Z</time>
      </trkpt>
      <trkpt lat="43.36534" lon="6.14374">
        <ele>351</ele>
        <time>2012-12-22T15:27:14Z</time>
      </trkpt>
      <trkpt lat="43.36533" lon="6.14373">
        <ele>351</ele>
        <time>2012-12-22T15:27:19Z</time>
      </trkpt>
      <trkpt lat="43.36532" lon="6.14373">
        <ele>352</ele>
        <time>2012-12-22T15:27:34Z</time>
      </trkpt>
      <trkpt lat="43.36529" lon="6.14374">
        <ele>351</ele>
        <time>2012-12-22T15:28:50Z</time>
      </trkpt>
      <trkpt lat="43.36523" lon="6.14363">
        <ele>351</ele>
        <time>2012-12-22T15:29:00Z</time>
      </trkpt>
      <trkpt lat="43.36519" lon="6.14342">
        <ele>350</ele>
        <time>2012-12-22T15:29:05Z</time>
      </trkpt>
      <trkpt lat="43.36524" lon="6.14304">
        <ele>351</ele>
        <time>2012-12-22T15:29:21Z</time>
      </trkpt>
      <trkpt lat="43.3652" lon="6.14312">
        <ele>352</ele>
        <time>2012-12-22T15:29:26Z</time>
      </trkpt>
      <trkpt lat="43.36523" lon="6.14316">
        <ele>350</ele>
        <time>2012-12-22T15:31:27Z</time>
      </trkpt>
      <trkpt lat="43.36525" lon="6.14317">
        <ele>350</ele>
        <time>2012-12-22T15:31:42Z</time>
      </trkpt>
      <trkpt lat="43.36526" lon="6.14304">
        <ele>351</ele>
        <time>2012-12-22T15:32:29Z</time>
      </trkpt>
      <trkpt lat="43.36526" lon="6.14298">
        <ele>350</ele>
        <time>2012-12-22T15:32:59Z</time>
      </trkpt>
      <trkpt lat="43.36535" lon="6.14257">
        <ele>349</ele>
        <time>2012-12-22T15:33:14Z</time>
      </trkpt>
      <trkpt lat="43.36541" lon="6.14196">
        <ele>347</ele>
        <time>2012-12-22T15:33:29Z</time>
      </trkpt>
      <trkpt lat="43.36522" lon="6.1408">
        <ele>341</ele>
        <time>2012-12-22T15:33:55Z</time>
      </trkpt>
      <trkpt lat="43.36526" lon="6.14011">
        <ele>338</ele>
        <time>2012-12-22T15:34:10Z</time>
      </trkpt>
      <trkpt lat="43.36528" lon="6.13989">
        <ele>338</ele>
        <time>2012-12-22T15:34:15Z</time>
      </trkpt>
      <trkpt lat="43.36524" lon="6.1391">
        <ele>335</ele>
        <time>2012-12-22T15:34:30Z</time>
      </trkpt>
      <trkpt lat="43.36531" lon="6.13836">
        <ele>333</ele>
        <time>2012-12-22T15:34:41Z</time>
      </trkpt>
      <trkpt lat="43.36537" lon="6.13799">
        <ele>332</ele>
        <time>2012-12-22T15:34:46Z</time>
      </trkpt>
      <trkpt lat="43.36566" lon="6.13616">
        <ele>322</ele>
        <time>2012-12-22T15:35:06Z</time>
      </trkpt>
      <trkpt lat="43.36586" lon="6.13535">
        <ele>318</ele>
        <time>2012-12-22T15:35:16Z</time>
      </trkpt>
      <trkpt lat="43.36594" lon="6.13496">
        <ele>316</ele>
        <time>2012-12-22T15:35:21Z</time>
      </trkpt>
      <trkpt lat="43.36603" lon="6.13455">
        <ele>314</ele>
        <time>2012-12-22T15:35:26Z</time>
      </trkpt>
      <trkpt lat="43.3664" lon="6.13313">
        <ele>311</ele>
        <time>2012-12-22T15:35:42Z</time>
      </trkpt>
      <trkpt lat="43.36649" lon="6.1326">
        <ele>310</ele>
        <time>2012-12-22T15:35:47Z</time>
      </trkpt>
      <trkpt lat="43.36654" lon="6.13204">
        <ele>307</ele>
        <time>2012-12-22T15:35:52Z</time>
      </trkpt>
      <trkpt lat="43.36659" lon="6.13162">
        <ele>305</ele>
        <time>2012-12-22T15:35:57Z</time>
      </trkpt>
      <trkpt lat="43.36679" lon="6.13144">
        <ele>303</ele>
        <time>2012-12-22T15:36:02Z</time>
      </trkpt>
      <trkpt lat="43.367" lon="6.13105">
        <ele>300</ele>
        <time>2012-12-22T15:36:07Z</time>
      </trkpt>
      <trkpt lat="43.36718" lon="6.13057">
        <ele>297</ele>
        <time>2012-12-22T15:36:12Z</time>
      </trkpt>
      <trkpt lat="43.3674" lon="6.13015">
        <ele>295</ele>
        <time>2012-12-22T15:36:17Z</time>
      </trkpt>
      <trkpt lat="43.36769" lon="6.12977">
        <ele>292</ele>
        <time>2012-12-22T15:36:22Z</time>
      </trkpt>
      <trkpt lat="43.36803" lon="6.1294">
        <ele>290</ele>
        <time>2012-12-22T15:36:27Z</time>
      </trkpt>
      <trkpt lat="43.36901" lon="6.1284">
        <ele>282</ele>
        <time>2012-12-22T15:36:42Z</time>
      </trkpt>
      <trkpt lat="43.36921" lon="6.128">
        <ele>280</ele>
        <time>2012-12-22T15:36:47Z</time>
      </trkpt>
      <trkpt lat="43.37" lon="6.12635">
        <ele>278</ele>
        <time>2012-12-22T15:37:08Z</time>
      </trkpt>
      <trkpt lat="43.37023" lon="6.12585">
        <ele>277</ele>
        <time>2012-12-22T15:37:18Z</time>
      </trkpt>
      <trkpt lat="43.37036" lon="6.12564">
        <ele>276</ele>
        <time>2012-12-22T15:37:23Z</time>
      </trkpt>
      <trkpt lat="43.37053" lon="6.12545">
        <ele>274</ele>
        <time>2012-12-22T15:37:28Z</time>
      </trkpt>
      <trkpt lat="43.37092" lon="6.12509">
        <ele>273</ele>
        <time>2012-12-22T15:37:38Z</time>
      </trkpt>
      <trkpt lat="43.37108" lon="6.12488">
        <ele>273</ele>
        <time>2012-12-22T15:37:43Z</time>
      </trkpt>
      <trkpt lat="43.3712" lon="6.12463">
        <ele>273</ele>
        <time>2012-12-22T15:37:48Z</time>
      </trkpt>
      <trkpt lat="43.37142" lon="6.12414">
        <ele>272</ele>
        <time>2012-12-22T15:37:58Z</time>
      </trkpt>
      <trkpt lat="43.37157" lon="6.12387">
        <ele>272</ele>
        <time>2012-12-22T15:38:03Z</time>
      </trkpt>
      <trkpt lat="43.37191" lon="6.12344">
        <ele>275</ele>
        <time>2012-12-22T15:38:18Z</time>
      </trkpt>
      <trkpt lat="43.37199" lon="6.12332">
        <ele>275</ele>
        <time>2012-12-22T15:38:24Z</time>
      </trkpt>
      <trkpt lat="43.37212" lon="6.12306">
        <ele>277</ele>
        <time>2012-12-22T15:38:34Z</time>
      </trkpt>
      <trkpt lat="43.37236" lon="6.12236">
        <ele>281</ele>
        <time>2012-12-22T15:39:04Z</time>
      </trkpt>
      <trkpt lat="43.37271" lon="6.12166">
        <ele>285</ele>
        <time>2012-12-22T15:39:44Z</time>
      </trkpt>
      <trkpt lat="43.37291" lon="6.12145">
        <ele>289</ele>
        <time>2012-12-22T15:40:05Z</time>
      </trkpt>
      <trkpt lat="43.37294" lon="6.1214">
        <ele>290</ele>
        <time>2012-12-22T15:40:40Z</time>
      </trkpt>
      <trkpt lat="43.37326" lon="6.12125">
        <ele>294</ele>
        <time>2012-12-22T15:42:37Z</time>
      </trkpt>
      <trkpt lat="43.37369" lon="6.12095">
        <ele>299</ele>
        <time>2012-12-22T15:43:18Z</time>
      </trkpt>
      <trkpt lat="43.37379" lon="6.12093">
        <ele>300</ele>
        <time>2012-12-22T15:43:28Z</time>
      </trkpt>
      <trkpt lat="43.3741" lon="6.12091">
        <ele>301</ele>
        <time>2012-12-22T15:43:49Z</time>
      </trkpt>
      <trkpt lat="43.37428" lon="6.12084">
        <ele>303</ele>
        <time>2012-12-22T15:44:20Z</time>
      </trkpt>
      <trkpt lat="43.37431" lon="6.12085">
        <ele>304</ele>
        <time>2012-12-22T15:45:41Z</time>
      </trkpt>
      <trkpt lat="43.37441" lon="6.12088">
        <ele>303</ele>
        <time>2012-12-22T15:46:01Z</time>
      </trkpt>
      <trkpt lat="43.37436" lon="6.12084">
        <ele>303</ele>
        <time>2012-12-22T15:46:31Z</time>
      </trkpt>
      <trkpt lat="43.37432" lon="6.12083">
        <ele>303</ele>
        <time>2012-12-22T15:47:01Z</time>
      </trkpt>
      <trkpt lat="43.37431" lon="6.12077">
        <ele>304</ele>
        <time>2012-12-22T15:47:36Z</time>
      </trkpt>
      <trkpt lat="43.37431" lon="6.1208">
        <ele>303</ele>
        <time>2012-12-22T15:47:57Z</time>
      </trkpt>
      <trkpt lat="43.37427" lon="6.12081">
        <ele>304</ele>
        <time>2012-12-22T15:48:27Z</time>
      </trkpt>
      <trkpt lat="43.37431" lon="6.1208">
        <ele>304</ele>
        <time>2012-12-22T15:48:47Z</time>
      </trkpt>
      <trkpt lat="43.37431" lon="6.12081">
        <ele>304</ele>
        <time>2012-12-22T15:49:13Z</time>
      </trkpt>
      <trkpt lat="43.37439" lon="6.12081">
        <ele>303</ele>
        <time>2012-12-22T15:49:23Z</time>
      </trkpt>
      <trkpt lat="43.37455" lon="6.12076">
        <ele>301</ele>
        <time>2012-12-22T15:49:28Z</time>
      </trkpt>
      <trkpt lat="43.37483" lon="6.12051">
        <ele>297</ele>
        <time>2012-12-22T15:49:33Z</time>
      </trkpt>
      <trkpt lat="43.37506" lon="6.12026">
        <ele>292</ele>
        <time>2012-12-22T15:49:39Z</time>
      </trkpt>
      <trkpt lat="43.37534" lon="6.11993">
        <ele>286</ele>
        <time>2012-12-22T15:49:44Z</time>
      </trkpt>
      <trkpt lat="43.37565" lon="6.1197">
        <ele>282</ele>
        <time>2012-12-22T15:49:49Z</time>
      </trkpt>
      <trkpt lat="43.37586" lon="6.11944">
        <ele>277</ele>
        <time>2012-12-22T15:49:54Z</time>
      </trkpt>
      <trkpt lat="43.3765" lon="6.11851">
        <ele>268</ele>
        <time>2012-12-22T15:50:04Z</time>
      </trkpt>
      <trkpt lat="43.3767" lon="6.11817">
        <ele>265</ele>
        <time>2012-12-22T15:50:10Z</time>
      </trkpt>
      <trkpt lat="43.37716" lon="6.11729">
        <ele>259</ele>
        <time>2012-12-22T15:50:20Z</time>
      </trkpt>
      <trkpt lat="43.37737" lon="6.11686">
        <ele>257</ele>
        <time>2012-12-22T15:50:25Z</time>
      </trkpt>
      <trkpt lat="43.37755" lon="6.11643">
        <ele>254</ele>
        <time>2012-12-22T15:50:30Z</time>
      </trkpt>
      <trkpt lat="43.37807" lon="6.11574">
        <ele>251</ele>
        <time>2012-12-22T15:50:40Z</time>
      </trkpt>
      <trkpt lat="43.37823" lon="6.11535">
        <ele>250</ele>
        <time>2012-12-22T15:50:45Z</time>
      </trkpt>
      <trkpt lat="43.37844" lon="6.11489">
        <ele>247</ele>
        <time>2012-12-22T15:50:50Z</time>
      </trkpt>
      <trkpt lat="43.37902" lon="6.11449">
        <ele>245</ele>
        <time>2012-12-22T15:51:00Z</time>
      </trkpt>
      <trkpt lat="43.37924" lon="6.11423">
        <ele>245</ele>
        <time>2012-12-22T15:51:06Z</time>
      </trkpt>
      <trkpt lat="43.37966" lon="6.11372">
        <ele>245</ele>
        <time>2012-12-22T15:51:16Z</time>
      </trkpt>
      <trkpt lat="43.37984" lon="6.11348">
        <ele>245</ele>
        <time>2012-12-22T15:51:21Z</time>
      </trkpt>
      <trkpt lat="43.38034" lon="6.1124">
        <ele>245</ele>
        <time>2012-12-22T15:51:41Z</time>
      </trkpt>
      <trkpt lat="43.38047" lon="6.11216">
        <ele>245</ele>
        <time>2012-12-22T15:51:46Z</time>
      </trkpt>
      <trkpt lat="43.38066" lon="6.11194">
        <ele>246</ele>
        <time>2012-12-22T15:51:52Z</time>
      </trkpt>
      <trkpt lat="43.38118" lon="6.11138">
        <ele>243</ele>
        <time>2012-12-22T15:52:02Z</time>
      </trkpt>
      <trkpt lat="43.38145" lon="6.111">
        <ele>241</ele>
        <time>2012-12-22T15:52:07Z</time>
      </trkpt>
      <trkpt lat="43.3816" lon="6.11055">
        <ele>239</ele>
        <time>2012-12-22T15:52:12Z</time>
      </trkpt>
      <trkpt lat="43.38188" lon="6.10922">
        <ele>236</ele>
        <time>2012-12-22T15:52:27Z</time>
      </trkpt>
      <trkpt lat="43.38198" lon="6.10837">
        <ele>235</ele>
        <time>2012-12-22T15:52:37Z</time>
      </trkpt>
      <trkpt lat="43.38209" lon="6.10795">
        <ele>234</ele>
        <time>2012-12-22T15:52:42Z</time>
      </trkpt>
      <trkpt lat="43.38235" lon="6.10713">
        <ele>233</ele>
        <time>2012-12-22T15:52:52Z</time>
      </trkpt>
      <trkpt lat="43.38281" lon="6.10618">
        <ele>230</ele>
        <time>2012-12-22T15:53:03Z</time>
      </trkpt>
      <trkpt lat="43.38323" lon="6.10514">
        <ele>228</ele>
        <time>2012-12-22T15:53:13Z</time>
      </trkpt>
      <trkpt lat="43.38351" lon="6.10481">
        <ele>227</ele>
        <time>2012-12-22T15:53:18Z</time>
      </trkpt>
      <trkpt lat="43.38385" lon="6.10475">
        <ele>227</ele>
        <time>2012-12-22T15:53:23Z</time>
      </trkpt>
      <trkpt lat="43.38414" lon="6.10471">
        <ele>227</ele>
        <time>2012-12-22T15:53:28Z</time>
      </trkpt>
      <trkpt lat="43.38434" lon="6.10464">
        <ele>228</ele>
        <time>2012-12-22T15:53:33Z</time>
      </trkpt>
      <trkpt lat="43.38446" lon="6.10455">
        <ele>230</ele>
        <time>2012-12-22T15:53:38Z</time>
      </trkpt>
      <trkpt lat="43.38464" lon="6.1044">
        <ele>234</ele>
        <time>2012-12-22T15:53:48Z</time>
      </trkpt>
      <trkpt lat="43.38477" lon="6.10428">
        <ele>236</ele>
        <time>2012-12-22T15:53:59Z</time>
      </trkpt>
      <trkpt lat="43.3849" lon="6.10408">
        <ele>240</ele>
        <time>2012-12-22T15:54:14Z</time>
      </trkpt>
      <trkpt lat="43.38511" lon="6.10379">
        <ele>243</ele>
        <time>2012-12-22T15:54:34Z</time>
      </trkpt>
      <trkpt lat="43.38529" lon="6.10363">
        <ele>244</ele>
        <time>2012-12-22T15:54:50Z</time>
      </trkpt>
      <trkpt lat="43.38532" lon="6.10362">
        <ele>245</ele>
        <time>2012-12-22T15:55:25Z</time>
      </trkpt>
      <trkpt lat="43.38536" lon="6.10358">
        <ele>245</ele>
        <time>2012-12-22T15:56:01Z</time>
      </trkpt>
      <trkpt lat="43.38534" lon="6.1036">
        <ele>245</ele>
        <time>2012-12-22T15:56:16Z</time>
      </trkpt>
      <trkpt lat="43.38532" lon="6.10357">
        <ele>245</ele>
        <time>2012-12-22T15:56:31Z</time>
      </trkpt>
      <trkpt lat="43.38531" lon="6.10357">
        <ele>245</ele>
        <time>2012-12-22T15:56:41Z</time>
      </trkpt>
      <trkpt lat="43.38531" lon="6.10361">
        <ele>245</ele>
        <time>2012-12-22T15:57:12Z</time>
      </trkpt>
      <trkpt lat="43.38544" lon="6.10353">
        <ele>245</ele>
        <time>2012-12-22T15:57:27Z</time>
      </trkpt>
      <trkpt lat="43.3857" lon="6.10326">
        <ele>247</ele>
        <time>2012-12-22T15:57:47Z</time>
      </trkpt>
      <trkpt lat="43.38583" lon="6.10317">
        <ele>248</ele>
        <time>2012-12-22T15:57:53Z</time>
      </trkpt>
      <trkpt lat="43.38596" lon="6.10311">
        <ele>248</ele>
        <time>2012-12-22T15:57:58Z</time>
      </trkpt>
      <trkpt lat="43.38627" lon="6.10311">
        <ele>248</ele>
        <time>2012-12-22T15:58:08Z</time>
      </trkpt>
      <trkpt lat="43.38661" lon="6.10305">
        <ele>248</ele>
        <time>2012-12-22T15:58:18Z</time>
      </trkpt>
      <trkpt lat="43.38672" lon="6.10286">
        <ele>249</ele>
        <time>2012-12-22T15:58:23Z</time>
      </trkpt>
      <trkpt lat="43.38679" lon="6.10241">
        <ele>250</ele>
        <time>2012-12-22T15:58:33Z</time>
      </trkpt>
      <trkpt lat="43.38679" lon="6.10222">
        <ele>250</ele>
        <time>2012-12-22T15:58:38Z</time>
      </trkpt>
      <trkpt lat="43.3869" lon="6.10211">
        <ele>251</ele>
        <time>2012-12-22T15:58:43Z</time>
      </trkpt>
      <trkpt lat="43.38765" lon="6.10181">
        <ele>255</ele>
        <time>2012-12-22T15:59:08Z</time>
      </trkpt>
      <trkpt lat="43.3881" lon="6.10164">
        <ele>258</ele>
        <time>2012-12-22T15:59:34Z</time>
      </trkpt>
      <trkpt lat="43.38822" lon="6.10168">
        <ele>258</ele>
        <time>2012-12-22T15:59:39Z</time>
      </trkpt>
      <trkpt lat="43.38831" lon="6.10228">
        <ele>257</ele>
        <time>2012-12-22T15:59:49Z</time>
      </trkpt>
      <trkpt lat="43.38845" lon="6.10382">
        <ele>251</ele>
        <time>2012-12-22T16:00:04Z</time>
      </trkpt>
      <trkpt lat="43.38843" lon="6.10437">
        <ele>250</ele>
        <time>2012-12-22T16:00:09Z</time>
      </trkpt>
      <trkpt lat="43.38826" lon="6.1054">
        <ele>246</ele>
        <time>2012-12-22T16:00:20Z</time>
      </trkpt>
      <trkpt lat="43.38814" lon="6.10591">
        <ele>244</ele>
        <time>2012-12-22T16:00:25Z</time>
      </trkpt>
      <trkpt lat="43.38778" lon="6.10724">
        <ele>242</ele>
        <time>2012-12-22T16:00:40Z</time>
      </trkpt>
      <trkpt lat="43.3878" lon="6.10755">
        <ele>242</ele>
        <time>2012-12-22T16:00:45Z</time>
      </trkpt>
      <trkpt lat="43.38875" lon="6.10758">
        <ele>237</ele>
        <time>2012-12-22T16:01:00Z</time>
      </trkpt>
      <trkpt lat="43.38902" lon="6.10767">
        <ele>237</ele>
        <time>2012-12-22T16:01:05Z</time>
      </trkpt>
      <trkpt lat="43.38929" lon="6.1082">
        <ele>236</ele>
        <time>2012-12-22T16:01:15Z</time>
      </trkpt>
      <trkpt lat="43.38981" lon="6.10845">
        <ele>235</ele>
        <time>2012-12-22T16:01:25Z</time>
      </trkpt>
      <trkpt lat="43.39005" lon="6.10841">
        <ele>235</ele>
        <time>2012-12-22T16:01:30Z</time>
      </trkpt>
      <trkpt lat="43.39057" lon="6.10824">
        <ele>234</ele>
        <time>2012-12-22T16:01:41Z</time>
      </trkpt>
      <trkpt lat="43.39078" lon="6.10812">
        <ele>234</ele>
        <time>2012-12-22T16:01:46Z</time>
      </trkpt>
      <trkpt lat="43.39093" lon="6.10791">
        <ele>234</ele>
        <time>2012-12-22T16:01:51Z</time>
      </trkpt>
      <trkpt lat="43.39137" lon="6.10759">
        <ele>232</ele>
        <time>2012-12-22T16:02:01Z</time>
      </trkpt>
      <trkpt lat="43.39159" lon="6.10738">
        <ele>231</ele>
        <time>2012-12-22T16:02:06Z</time>
      </trkpt>
      <trkpt lat="43.39169" lon="6.10693">
        <ele>230</ele>
        <time>2012-12-22T16:02:11Z</time>
      </trkpt>
      <trkpt lat="43.39182" lon="6.10658">
        <ele>229</ele>
        <time>2012-12-22T16:02:17Z</time>
      </trkpt>
      <trkpt lat="43.39221" lon="6.10621">
        <ele>229</ele>
        <time>2012-12-22T16:02:27Z</time>
      </trkpt>
      <trkpt lat="43.39235" lon="6.10604">
        <ele>230</ele>
        <time>2012-12-22T16:02:32Z</time>
      </trkpt>
      <trkpt lat="43.3925" lon="6.10594">
        <ele>230</ele>
        <time>2012-12-22T16:02:37Z</time>
      </trkpt>
      <trkpt lat="43.39261" lon="6.10575">
        <ele>230</ele>
        <time>2012-12-22T16:02:42Z</time>
      </trkpt>
      <trkpt lat="43.39293" lon="6.10492">
        <ele>229</ele>
        <time>2012-12-22T16:02:57Z</time>
      </trkpt>
      <trkpt lat="43.39324" lon="6.1044">
        <ele>226</ele>
        <time>2012-12-22T16:03:08Z</time>
      </trkpt>
      <trkpt lat="43.39343" lon="6.1042">
        <ele>225</ele>
        <time>2012-12-22T16:03:13Z</time>
      </trkpt>
      <trkpt lat="43.39365" lon="6.10413">
        <ele>224</ele>
        <time>2012-12-22T16:03:18Z</time>
      </trkpt>
      <trkpt lat="43.39373" lon="6.10382">
        <ele>222</ele>
        <time>2012-12-22T16:03:23Z</time>
      </trkpt>
      <trkpt lat="43.39416" lon="6.10311">
        <ele>222</ele>
        <time>2012-12-22T16:03:38Z</time>
      </trkpt>
      <trkpt lat="43.39431" lon="6.10296">
        <ele>222</ele>
        <time>2012-12-22T16:03:43Z</time>
      </trkpt>
      <trkpt lat="43.39471" lon="6.10263">
        <ele>219</ele>
        <time>2012-12-22T16:03:54Z</time>
      </trkpt>
      <trkpt lat="43.3949" lon="6.10236">
        <ele>218</ele>
        <time>2012-12-22T16:03:59Z</time>
      </trkpt>
      <trkpt lat="43.39502" lon="6.10204">
        <ele>217</ele>
        <time>2012-12-22T16:04:04Z</time>
      </trkpt>
      <trkpt lat="43.39526" lon="6.10112">
        <ele>214</ele>
        <time>2012-12-22T16:04:24Z</time>
      </trkpt>
      <trkpt lat="43.39539" lon="6.10088">
        <ele>214</ele>
        <time>2012-12-22T16:04:30Z</time>
      </trkpt>
      <trkpt lat="43.39557" lon="6.10027">
        <ele>212</ele>
        <time>2012-12-22T16:04:40Z</time>
      </trkpt>
      <trkpt lat="43.39551" lon="6.09996">
        <ele>212</ele>
        <time>2012-12-22T16:04:50Z</time>
      </trkpt>
      <trkpt lat="43.39551" lon="6.09985">
        <ele>212</ele>
        <time>2012-12-22T16:04:55Z</time>
      </trkpt>
      <trkpt lat="43.39551" lon="6.09956">
        <ele>213</ele>
        <time>2012-12-22T16:05:05Z</time>
      </trkpt>
      <trkpt lat="43.39541" lon="6.09918">
        <ele>216</ele>
        <time>2012-12-22T16:05:21Z</time>
      </trkpt>
      <trkpt lat="43.39541" lon="6.09907">
        <ele>217</ele>
        <time>2012-12-22T16:05:26Z</time>
      </trkpt>
      <trkpt lat="43.3955" lon="6.09887">
        <ele>217</ele>
        <time>2012-12-22T16:05:36Z</time>
      </trkpt>
      <trkpt lat="43.39565" lon="6.09789">
        <ele>217</ele>
        <time>2012-12-22T16:06:07Z</time>
      </trkpt>
      <trkpt lat="43.39582" lon="6.09725">
        <ele>217</ele>
        <time>2012-12-22T16:06:22Z</time>
      </trkpt>
      <trkpt lat="43.3961" lon="6.09598">
        <ele>217</ele>
        <time>2012-12-22T16:06:48Z</time>
      </trkpt>
      <trkpt lat="43.39626" lon="6.09548">
        <ele>216</ele>
        <time>2012-12-22T16:06:58Z</time>
      </trkpt>
      <trkpt lat="43.39643" lon="6.09526">
        <ele>213</ele>
        <time>2012-12-22T16:07:03Z</time>
      </trkpt>
      <trkpt lat="43.39659" lon="6.09495">
        <ele>210</ele>
        <time>2012-12-22T16:07:08Z</time>
      </trkpt>
      <trkpt lat="43.39668" lon="6.09464">
        <ele>206</ele>
        <time>2012-12-22T16:07:13Z</time>
      </trkpt>
      <trkpt lat="43.39685" lon="6.09435">
        <ele>203</ele>
        <time>2012-12-22T16:07:18Z</time>
      </trkpt>
      <trkpt lat="43.39716" lon="6.09417">
        <ele>200</ele>
        <time>2012-12-22T16:07:23Z</time>
      </trkpt>
      <trkpt lat="43.3975" lon="6.09358">
        <ele>199</ele>
        <time>2012-12-22T16:07:33Z</time>
      </trkpt>
      <trkpt lat="43.39774" lon="6.0931">
        <ele>199</ele>
        <time>2012-12-22T16:07:43Z</time>
      </trkpt>
      <trkpt lat="43.39788" lon="6.09258">
        <ele>199</ele>
        <time>2012-12-22T16:07:54Z</time>
      </trkpt>
      <trkpt lat="43.39794" lon="6.09229">
        <ele>199</ele>
        <time>2012-12-22T16:07:59Z</time>
      </trkpt>
      <trkpt lat="43.39794" lon="6.0917">
        <ele>200</ele>
        <time>2012-12-22T16:08:09Z</time>
      </trkpt>
      <trkpt lat="43.39799" lon="6.09121">
        <ele>201</ele>
        <time>2012-12-22T16:08:20Z</time>
      </trkpt>
      <trkpt lat="43.3981" lon="6.09083">
        <ele>203</ele>
        <time>2012-12-22T16:08:30Z</time>
      </trkpt>
      <trkpt lat="43.39816" lon="6.09065">
        <ele>203</ele>
        <time>2012-12-22T16:08:35Z</time>
      </trkpt>
      <trkpt lat="43.3983" lon="6.09045">
        <ele>201</ele>
        <time>2012-12-22T16:08:40Z</time>
      </trkpt>
      <trkpt lat="43.3985" lon="6.09025">
        <ele>200</ele>
        <time>2012-12-22T16:08:45Z</time>
      </trkpt>
      <trkpt lat="43.39874" lon="6.08999">
        <ele>199</ele>
        <time>2012-12-22T16:08:50Z</time>
      </trkpt>
      <trkpt lat="43.39897" lon="6.0899">
        <ele>198</ele>
        <time>2012-12-22T16:08:56Z</time>
      </trkpt>
      <trkpt lat="43.39919" lon="6.0899">
        <ele>197</ele>
        <time>2012-12-22T16:09:01Z</time>
      </trkpt>
      <trkpt lat="43.39977" lon="6.08975">
        <ele>194</ele>
        <time>2012-12-22T16:09:11Z</time>
      </trkpt>
      <trkpt lat="43.40003" lon="6.08966">
        <ele>193</ele>
        <time>2012-12-22T16:09:16Z</time>
      </trkpt>
      <trkpt lat="43.40023" lon="6.08954">
        <ele>193</ele>
        <time>2012-12-22T16:09:21Z</time>
      </trkpt>
      <trkpt lat="43.40054" lon="6.08849">
        <ele>194</ele>
        <time>2012-12-22T16:09:41Z</time>
      </trkpt>
      <trkpt lat="43.4009" lon="6.08747">
        <ele>194</ele>
        <time>2012-12-22T16:10:02Z</time>
      </trkpt>
      <trkpt lat="43.40098" lon="6.08712">
        <ele>193</ele>
        <time>2012-12-22T16:10:07Z</time>
      </trkpt>
      <trkpt lat="43.40097" lon="6.08641">
        <ele>191</ele>
        <time>2012-12-22T16:10:17Z</time>
      </trkpt>
      <trkpt lat="43.40121" lon="6.08614">
        <ele>190</ele>
        <time>2012-12-22T16:10:22Z</time>
      </trkpt>
      <trkpt lat="43.40163" lon="6.08579">
        <ele>188</ele>
        <time>2012-12-22T16:10:33Z</time>
      </trkpt>
      <trkpt lat="43.40166" lon="6.08519">
        <ele>190</ele>
        <time>2012-12-22T16:10:48Z</time>
      </trkpt>
      <trkpt lat="43.40175" lon="6.08457">
        <ele>190</ele>
        <time>2012-12-22T16:11:03Z</time>
      </trkpt>
      <trkpt lat="43.40179" lon="6.08435">
        <ele>190</ele>
        <time>2012-12-22T16:11:08Z</time>
      </trkpt>
      <trkpt lat="43.40186" lon="6.08288">
        <ele>189</ele>
        <time>2012-12-22T16:11:33Z</time>
      </trkpt>
      <trkpt lat="43.40182" lon="6.08236">
        <ele>188</ele>
        <time>2012-12-22T16:11:49Z</time>
      </trkpt>
      <trkpt lat="43.40194" lon="6.08185">
        <ele>188</ele>
        <time>2012-12-22T16:11:59Z</time>
      </trkpt>
      <trkpt lat="43.40197" lon="6.08155">
        <ele>187</ele>
        <time>2012-12-22T16:12:04Z</time>
      </trkpt>
      <trkpt lat="43.40191" lon="6.08096">
        <ele>186</ele>
        <time>2012-12-22T16:12:14Z</time>
      </trkpt>
      <trkpt lat="43.40202" lon="6.08063">
        <ele>184</ele>
        <time>2012-12-22T16:12:19Z</time>
      </trkpt>
      <trkpt lat="43.40228" lon="6.08029">
        <ele>184</ele>
        <time>2012-12-22T16:12:24Z</time>
      </trkpt>
      <trkpt lat="43.40251" lon="6.08001">
        <ele>183</ele>
        <time>2012-12-22T16:12:29Z</time>
      </trkpt>
      <trkpt lat="43.40272" lon="6.07968">
        <ele>182</ele>
        <time>2012-12-22T16:12:35Z</time>
      </trkpt>
      <trkpt lat="43.40287" lon="6.0793">
        <ele>180</ele>
        <time>2012-12-22T16:12:40Z</time>
      </trkpt>
      <trkpt lat="43.40306" lon="6.07798">
        <ele>177</ele>
        <time>2012-12-22T16:12:55Z</time>
      </trkpt>
      <trkpt lat="43.40311" lon="6.07754">
        <ele>177</ele>
        <time>2012-12-22T16:13:00Z</time>
      </trkpt>
      <trkpt lat="43.40321" lon="6.07712">
        <ele>176</ele>
        <time>2012-12-22T16:13:05Z</time>
      </trkpt>
      <trkpt lat="43.40342" lon="6.07682">
        <ele>175</ele>
        <time>2012-12-22T16:13:10Z</time>
      </trkpt>
      <trkpt lat="43.40362" lon="6.0766">
        <ele>175</ele>
        <time>2012-12-22T16:13:15Z</time>
      </trkpt>
      <trkpt lat="43.4037" lon="6.07631">
        <ele>174</ele>
        <time>2012-12-22T16:13:20Z</time>
      </trkpt>
      <trkpt lat="43.40375" lon="6.07531">
        <ele>175</ele>
        <time>2012-12-22T16:13:35Z</time>
      </trkpt>
      <trkpt lat="43.40389" lon="6.07432">
        <ele>176</ele>
        <time>2012-12-22T16:13:51Z</time>
      </trkpt>
      <trkpt lat="43.4039" lon="6.07394">
        <ele>175</ele>
        <time>2012-12-22T16:13:56Z</time>
      </trkpt>
      <trkpt lat="43.40381" lon="6.0732">
        <ele>175</ele>
        <time>2012-12-22T16:14:06Z</time>
      </trkpt>
      <trkpt lat="43.40382" lon="6.07296">
        <ele>174</ele>
        <time>2012-12-22T16:14:11Z</time>
      </trkpt>
      <trkpt lat="43.40391" lon="6.07271">
        <ele>173</ele>
        <time>2012-12-22T16:14:16Z</time>
      </trkpt>
      <trkpt lat="43.40386" lon="6.07236">
        <ele>172</ele>
        <time>2012-12-22T16:14:21Z</time>
      </trkpt>
      <trkpt lat="43.40393" lon="6.07156">
        <ele>172</ele>
        <time>2012-12-22T16:14:31Z</time>
      </trkpt>
      <trkpt lat="43.40408" lon="6.07044">
        <ele>174</ele>
        <time>2012-12-22T16:14:52Z</time>
      </trkpt>
      <trkpt lat="43.40426" lon="6.06954">
        <ele>176</ele>
        <time>2012-12-22T16:15:12Z</time>
      </trkpt>
      <trkpt lat="43.40452" lon="6.0689">
        <ele>175</ele>
        <time>2012-12-22T16:15:27Z</time>
      </trkpt>
      <trkpt lat="43.40458" lon="6.06869">
        <ele>176</ele>
        <time>2012-12-22T16:15:32Z</time>
      </trkpt>
      <trkpt lat="43.40463" lon="6.06817">
        <ele>176</ele>
        <time>2012-12-22T16:15:43Z</time>
      </trkpt>
      <trkpt lat="43.40461" lon="6.06767">
        <ele>177</ele>
        <time>2012-12-22T16:15:53Z</time>
      </trkpt>
      <trkpt lat="43.40461" lon="6.06714">
        <ele>177</ele>
        <time>2012-12-22T16:16:03Z</time>
      </trkpt>
      <trkpt lat="43.40485" lon="6.06608">
        <ele>176</ele>
        <time>2012-12-22T16:16:23Z</time>
      </trkpt>
      <trkpt lat="43.40479" lon="6.06584">
        <ele>176</ele>
        <time>2012-12-22T16:16:28Z</time>
      </trkpt>
      <trkpt lat="43.40417" lon="6.06565">
        <ele>177</ele>
        <time>2012-12-22T16:16:43Z</time>
      </trkpt>
      <trkpt lat="43.40401" lon="6.06554">
        <ele>178</ele>
        <time>2012-12-22T16:16:49Z</time>
      </trkpt>
      <trkpt lat="43.404" lon="6.06537">
        <ele>179</ele>
        <time>2012-12-22T16:17:04Z</time>
      </trkpt>
      <trkpt lat="43.40404" lon="6.06538">
        <ele>178</ele>
        <time>2012-12-22T16:17:19Z</time>
      </trkpt>
      <trkpt lat="43.40395" lon="6.0653">
        <ele>178</ele>
        <time>2012-12-22T16:18:35Z</time>
      </trkpt>
      <trkpt lat="43.40403" lon="6.06539">
        <ele>177</ele>
        <time>2012-12-22T16:19:15Z</time>
      </trkpt>
      <trkpt lat="43.40405" lon="6.06542">
        <ele>177</ele>
        <time>2012-12-22T16:19:20Z</time>
      </trkpt>
      <trkpt lat="43.40413" lon="6.06542">
        <ele>178</ele>
        <time>2012-12-22T16:19:30Z</time>
      </trkpt>
      <trkpt lat="43.40406" lon="6.06556">
        <ele>178</ele>
        <time>2012-12-22T16:19:43Z</time>
      </trkpt>
      <trkpt lat="43.40409" lon="6.0656">
        <ele>178</ele>
        <time>2012-12-22T16:21:01Z</time>
      </trkpt>
      <trkpt lat="43.40421" lon="6.0656">
        <ele>178</ele>
        <time>2012-12-22T16:21:07Z</time>
      </trkpt>
      <trkpt lat="43.40418" lon="6.06567">
        <ele>178</ele>
        <time>2012-12-22T16:21:12Z</time>
      </trkpt>
      <trkpt lat="43.40416" lon="6.0656">
        <ele>178</ele>
        <time>2012-12-22T16:21:20Z</time>
      </trkpt>
      <trkpt lat="43.40421" lon="6.06571">
        <ele>178</ele>
        <time>2012-12-22T16:21:37Z</time>
      </trkpt>
      <trkpt lat="43.40418" lon="6.06573">
        <ele>178</ele>
        <time>2012-12-22T16:21:42Z</time>
      </trkpt>
      <trkpt lat="43.40407" lon="6.06562">
        <ele>178</ele>
        <time>2012-12-22T16:22:42Z</time>
      </trkpt>
      <trkpt lat="43.40426" lon="6.06564">
        <ele>178</ele>
        <time>2012-12-22T16:22:48Z</time>
      </trkpt>
      <trkpt lat="43.40419" lon="6.06546">
        <ele>178</ele>
        <time>2012-12-22T16:22:58Z</time>
      </trkpt>
      <trkpt lat="43.40406" lon="6.06532">
        <ele>177</ele>
        <time>2012-12-22T16:23:09Z</time>
      </trkpt>
      <trkpt lat="43.40411" lon="6.06487">
        <ele>177</ele>
        <time>2012-12-22T16:23:19Z</time>
      </trkpt>
      <trkpt lat="43.40434" lon="6.06483">
        <ele>177</ele>
        <time>2012-12-22T16:23:24Z</time>
      </trkpt>
      <trkpt lat="43.40457" lon="6.0649">
        <ele>176</ele>
        <time>2012-12-22T16:23:29Z</time>
      </trkpt>
      <trkpt lat="43.40498" lon="6.06503">
        <ele>174</ele>
        <time>2012-12-22T16:23:40Z</time>
      </trkpt>
      <trkpt lat="43.40591" lon="6.06526">
        <ele>171</ele>
        <time>2012-12-22T16:23:55Z</time>
      </trkpt>
      <trkpt lat="43.40609" lon="6.06532">
        <ele>169</ele>
        <time>2012-12-22T16:24:05Z</time>
      </trkpt>
      <trkpt lat="43.4062" lon="6.06519">
        <ele>169</ele>
        <time>2012-12-22T16:24:10Z</time>
      </trkpt>
      <trkpt lat="43.40637" lon="6.06494">
        <ele>168</ele>
        <time>2012-12-22T16:24:15Z</time>
      </trkpt>
      <trkpt lat="43.40665" lon="6.06464">
        <ele>166</ele>
        <time>2012-12-22T16:24:20Z</time>
      </trkpt>
      <trkpt lat="43.40701" lon="6.06438">
        <ele>163</ele>
        <time>2012-12-22T16:24:25Z</time>
      </trkpt>
      <trkpt lat="43.40742" lon="6.06431">
        <ele>160</ele>
        <time>2012-12-22T16:24:30Z</time>
      </trkpt>
      <trkpt lat="43.40788" lon="6.06414">
        <ele>159</ele>
        <time>2012-12-22T16:24:35Z</time>
      </trkpt>
      <trkpt lat="43.40823" lon="6.06418">
        <ele>159</ele>
        <time>2012-12-22T16:24:40Z</time>
      </trkpt>
      <trkpt lat="43.40853" lon="6.06405">
        <ele>159</ele>
        <time>2012-12-22T16:24:46Z</time>
      </trkpt>
      <trkpt lat="43.40878" lon="6.06383">
        <ele>159</ele>
        <time>2012-12-22T16:24:51Z</time>
      </trkpt>
      <trkpt lat="43.4094" lon="6.0631">
        <ele>161</ele>
        <time>2012-12-22T16:25:06Z</time>
      </trkpt>
      <trkpt lat="43.40961" lon="6.06302">
        <ele>161</ele>
        <time>2012-12-22T16:25:11Z</time>
      </trkpt>
      <trkpt lat="43.40984" lon="6.06365">
        <ele>160</ele>
        <time>2012-12-22T16:25:21Z</time>
      </trkpt>
      <trkpt lat="43.41002" lon="6.064">
        <ele>159</ele>
        <time>2012-12-22T16:25:26Z</time>
      </trkpt>
      <trkpt lat="43.41047" lon="6.06464">
        <ele>159</ele>
        <time>2012-12-22T16:25:36Z</time>
      </trkpt>
      <trkpt lat="43.41066" lon="6.0649">
        <ele>160</ele>
        <time>2012-12-22T16:25:41Z</time>
      </trkpt>
      <trkpt lat="43.41174" lon="6.06615">
        <ele>160</ele>
        <time>2012-12-22T16:26:07Z</time>
      </trkpt>
      <trkpt lat="43.41241" lon="6.06697">
        <ele>160</ele>
        <time>2012-12-22T16:26:22Z</time>
      </trkpt>
      <trkpt lat="43.41258" lon="6.06722">
        <ele>161</ele>
        <time>2012-12-22T16:26:27Z</time>
      </trkpt>
      <trkpt lat="43.41285" lon="6.06773">
        <ele>162</ele>
        <time>2012-12-22T16:26:38Z</time>
      </trkpt>
      <trkpt lat="43.41301" lon="6.06793">
        <ele>164</ele>
        <time>2012-12-22T16:26:43Z</time>
      </trkpt>
      <trkpt lat="43.41338" lon="6.06819">
        <ele>164</ele>
        <time>2012-12-22T16:26:53Z</time>
      </trkpt>
      <trkpt lat="43.41358" lon="6.06828">
        <ele>165</ele>
        <time>2012-12-22T16:26:58Z</time>
      </trkpt>
      <trkpt lat="43.41382" lon="6.06842">
        <ele>165</ele>
        <time>2012-12-22T16:27:03Z</time>
      </trkpt>
      <trkpt lat="43.41402" lon="6.0686">
        <ele>165</ele>
        <time>2012-12-22T16:27:09Z</time>
      </trkpt>
      <trkpt lat="43.41409" lon="6.06871">
        <ele>165</ele>
        <time>2012-12-22T16:27:14Z</time>
      </trkpt>
      <trkpt lat="43.41418" lon="6.06905">
        <ele>165</ele>
        <time>2012-12-22T16:27:24Z</time>
      </trkpt>
      <trkpt lat="43.41433" lon="6.06923">
        <ele>164</ele>
        <time>2012-12-22T16:27:29Z</time>
      </trkpt>
      <trkpt lat="43.41454" lon="6.06919">
        <ele>164</ele>
        <time>2012-12-22T16:27:34Z</time>
      </trkpt>
      <trkpt lat="43.41472" lon="6.06902">
        <ele>164</ele>
        <time>2012-12-22T16:27:39Z</time>
      </trkpt>
      <trkpt lat="43.41495" lon="6.069">
        <ele>164</ele>
        <time>2012-12-22T16:27:44Z</time>
      </trkpt>
      <trkpt lat="43.41516" lon="6.06904">
        <ele>165</ele>
        <time>2012-12-22T16:27:49Z</time>
      </trkpt>
      <trkpt lat="43.41582" lon="6.06936">
        <ele>166</ele>
        <time>2012-12-22T16:28:04Z</time>
      </trkpt>
      <trkpt lat="43.41684" lon="6.06987">
        <ele>172</ele>
        <time>2012-12-22T16:28:35Z</time>
      </trkpt>
      <trkpt lat="43.41693" lon="6.07002">
        <ele>172</ele>
        <time>2012-12-22T16:28:40Z</time>
      </trkpt>
      <trkpt lat="43.41706" lon="6.07057">
        <ele>171</ele>
        <time>2012-12-22T16:28:50Z</time>
      </trkpt>
      <trkpt lat="43.41717" lon="6.07083">
        <ele>171</ele>
        <time>2012-12-22T16:28:56Z</time>
      </trkpt>
      <trkpt lat="43.41737" lon="6.07093">
        <ele>171</ele>
        <time>2012-12-22T16:29:01Z</time>
      </trkpt>
      <trkpt lat="43.4178" lon="6.071">
        <ele>171</ele>
        <time>2012-12-22T16:29:11Z</time>
      </trkpt>
      <trkpt lat="43.418" lon="6.07106">
        <ele>171</ele>
        <time>2012-12-22T16:29:16Z</time>
      </trkpt>
      <trkpt lat="43.41833" lon="6.07129">
        <ele>172</ele>
        <time>2012-12-22T16:29:26Z</time>
      </trkpt>
      <trkpt lat="43.41844" lon="6.07143">
        <ele>173</ele>
        <time>2012-12-22T16:29:31Z</time>
      </trkpt>
      <trkpt lat="43.41845" lon="6.07163">
        <ele>173</ele>
        <time>2012-12-22T16:29:36Z</time>
      </trkpt>
      <trkpt lat="43.4184" lon="6.07192">
        <ele>175</ele>
        <time>2012-12-22T16:29:47Z</time>
      </trkpt>
      <trkpt lat="43.41845" lon="6.072">
        <ele>176</ele>
        <time>2012-12-22T16:29:52Z</time>
      </trkpt>
      <trkpt lat="43.41856" lon="6.07205">
        <ele>176</ele>
        <time>2012-12-22T16:29:57Z</time>
      </trkpt>
      <trkpt lat="43.41863" lon="6.07214">
        <ele>177</ele>
        <time>2012-12-22T16:30:02Z</time>
      </trkpt>
      <trkpt lat="43.41861" lon="6.07268">
        <ele>178</ele>
        <time>2012-12-22T16:30:38Z</time>
      </trkpt>
    </trkseg>
  </trk>
</gpx>